Wetterdaten: Montag, 31.08.2020
Datum Zeit Temp. Aussen Temp. o. S. Temp +5cm Feuchte Auss Luftdruck Regen Sonnenschein Regendauer Solar Windben Empfang
31.08.2020 00:00 16,1 C 14,4 C 14,4 C 97 % 1014,2 hPa 0,0 l/m 0 min 2 min 0 W/m 9,7 km/h (2 Bft) 95,65 %
31.08.2020 00:02 16,1 C 14,4 C 14,4 C 97 % 1014,2 hPa 0,0 l/m 0 min 2 min 0 W/m 0,0 km/h (0 Bft) 97,30 %
31.08.2020 00:04 16,1 C 14,4 C 14,4 C 97 % 1014,2 hPa 0,2 l/m 0 min 2 min 0 W/m 0,0 km/h (0 Bft) 95,74 %
31.08.2020 00:07 16,1 C 14,4 C 14,4 C 97 % 1014,3 hPa 0,0 l/m 0 min 3 min 0 W/m 0,0 km/h (0 Bft) 98,57 %
31.08.2020 00:08 16,0 C 14,4 C 14,4 C 97 % 1014,3 hPa 0,0 l/m 0 min 1 min 0 W/m 0,0 km/h (0 Bft) 95,83 %
31.08.2020 00:10 16,0 C 14,4 C 14,4 C 97 % 1014,3 hPa 0,0 l/m 0 min 2 min 0 W/m 9,7 km/h (2 Bft) 95,74 %
31.08.2020 00:12 16,0 C 14,4 C 14,4 C 97 % 1014,3 hPa 0,0 l/m 0 min 2 min 0 W/m 0,0 km/h (0 Bft) 95,65 %
31.08.2020 00:14 15,9 C 14,4 C 14,4 C 97 % 1014,3 hPa 0,0 l/m 0 min 2 min 0 W/m 0,0 km/h (0 Bft) 97,87 %
31.08.2020 00:16 15,9 C 14,4 C 14,4 C 97 % 1014,3 hPa 0,0 l/m 0 min 2 min 0 W/m 6,4 km/h (2 Bft) 97,87 %
31.08.2020 00:18 15,9 C 14,4 C 14,4 C 97 % 1014,3 hPa 0,0 l/m 0 min 0 min 0 W/m 3,2 km/h (1 Bft) 97,87 %
31.08.2020 00:20 15,9 C 14,4 C 14,4 C 97 % 1014,3 hPa 0,0 l/m 0 min 0 min 0 W/m 3,2 km/h (1 Bft) 97,87 %
31.08.2020 00:22 15,9 C 14,4 C 14,4 C 97 % 1014,3 hPa 0,0 l/m 0 min 0 min 0 W/m 3,2 km/h (1 Bft) 97,87 %
31.08.2020 00:24 15,9 C 14,4 C 14,4 C 97 % 1014,3 hPa 0,0 l/m 0 min 0 min 0 W/m 0,0 km/h (0 Bft) 95,65 %
31.08.2020 00:26 15,9 C 14,4 C 14,4 C 97 % 1014,4 hPa 0,2 l/m 0 min 0 min 0 W/m 0,0 km/h (0 Bft) 93,62 %
31.08.2020 00:28 15,8 C 14,4 C 14,4 C 97 % 1014,4 hPa 0,0 l/m 0 min 0 min 0 W/m 0,0 km/h (0 Bft) 95,74 %
31.08.2020 00:30 15,8 C 14,4 C 14,4 C 97 % 1014,4 hPa 0,0 l/m 0 min 0 min 0 W/m 6,4 km/h (2 Bft) 95,74 %
31.08.2020 00:32 15,8 C 14,4 C 14,4 C 97 % 1014,4 hPa 0,0 l/m 0 min 0 min 0 W/m 6,4 km/h (2 Bft) 97,87 %
31.08.2020 00:34 15,8 C 14,4 C 14,4 C 97 % 1014,4 hPa 0,0 l/m 0 min 0 min 0 W/m 6,4 km/h (2 Bft) 97,87 %
31.08.2020 00:36 15,7 C 13,9 C 14,4 C 97 % 1014,5 hPa 0,0 l/m 0 min 0 min 0 W/m 9,7 km/h (2 Bft) 97,83 %
31.08.2020 00:38 15,7 C 14,4 C 14,4 C 97 % 1014,5 hPa 0,0 l/m 0 min 0 min 0 W/m 0,0 km/h (0 Bft) 97,87 %
31.08.2020 00:40 15,7 C 14,4 C 14,4 C 97 % 1014,5 hPa 0,0 l/m 0 min 2 min 0 W/m 12,9 km/h (3 Bft) 95,74 %
31.08.2020 00:42 15,7 C 13,9 C 14,4 C 97 % 1014,5 hPa 0,0 l/m 0 min 0 min 0 W/m 0,0 km/h (0 Bft) 100,00 %
31.08.2020 00:44 15,6 C 13,9 C 14,4 C 97 % 1014,7 hPa 0,0 l/m 0 min 2 min 0 W/m 6,4 km/h (2 Bft) 97,87 %
31.08.2020 00:46 15,6 C 13,9 C 14,4 C 97 % 1014,6 hPa 0,0 l/m 0 min 0 min 0 W/m 6,4 km/h (2 Bft) 97,83 %
31.08.2020 00:48 15,6 C 13,9 C 14,4 C 98 % 1014,7 hPa 0,0 l/m 0 min 2 min 0 W/m 6,4 km/h (2 Bft) 95,74 %
31.08.2020 00:50 15,6 C 13,9 C 14,4 C 98 % 1014,6 hPa 0,2 l/m 0 min 2 min 0 W/m 6,4 km/h (2 Bft) 97,87 %
31.08.2020 00:52 15,6 C 13,9 C 14,4 C 98 % 1014,7 hPa 0,0 l/m 0 min 2 min 0 W/m 3,2 km/h (1 Bft) 97,87 %
31.08.2020 00:54 15,6 C 13,9 C 14,4 C 98 % 1014,7 hPa 0,2 l/m 0 min 2 min 0 W/m 3,2 km/h (1 Bft) 97,87 %
31.08.2020 00:56 15,5 C 13,9 C 13,9 C 98 % 1014,7 hPa 0,2 l/m 0 min 2 min 0 W/m 3,2 km/h (1 Bft) 97,87 %
31.08.2020 00:58 15,5 C 13,9 C 13,9 C 97 % 1014,7 hPa 0,6 l/m 0 min 2 min 0 W/m 16,1 km/h (3 Bft) 97,83 %
31.08.2020 01:00 15,4 C 13,9 C 13,9 C 97 % 1014,7 hPa 0,4 l/m 0 min 2 min 0 W/m 0,0 km/h (0 Bft) 97,87 %
31.08.2020 01:02 15,4 C 13,9 C 13,9 C 98 % 1014,7 hPa 0,4 l/m 0 min 2 min 0 W/m 0,0 km/h (0 Bft) 97,87 %
31.08.2020 01:04 15,4 C 13,9 C 13,9 C 98 % 1014,7 hPa 0,2 l/m 0 min 2 min 0 W/m 0,0 km/h (0 Bft) 95,83 %
31.08.2020 01:06 15,4 C 13,9 C 13,9 C 98 % 1014,7 hPa 0,0 l/m 0 min 2 min 0 W/m 0,0 km/h (0 Bft) 95,74 %
31.08.2020 01:08 15,4 C 13,9 C 13,9 C 98 % 1014,8 hPa 0,0 l/m 0 min 2 min 0 W/m 0,0 km/h (0 Bft) 95,74 %
31.08.2020 01:10 15,3 C 13,9 C 13,9 C 98 % 1014,8 hPa 0,0 l/m 0 min 2 min 0 W/m 0,0 km/h (0 Bft) 97,87 %
31.08.2020 01:12 15,3 C 13,9 C 13,9 C 98 % 1014,8 hPa 0,0 l/m 0 min 0 min 0 W/m 3,2 km/h (1 Bft) 97,87 %
31.08.2020 01:14 15,3 C 13,9 C 13,9 C 98 % 1014,8 hPa 0,0 l/m 0 min 2 min 0 W/m 3,2 km/h (1 Bft) 97,87 %
31.08.2020 01:16 15,3 C 13,9 C 13,9 C 98 % 1014,8 hPa 0,0 l/m 0 min 2 min 0 W/m 0,0 km/h (0 Bft) 97,83 %
31.08.2020 01:18 15,3 C 13,9 C 13,9 C 98 % 1014,8 hPa 0,0 l/m 0 min 2 min 0 W/m 6,4 km/h (2 Bft) 95,74 %
31.08.2020 01:20 15,2 C 13,9 C 13,9 C 98 % 1014,9 hPa 0,0 l/m 0 min 2 min 0 W/m 3,2 km/h (1 Bft) 97,87 %
31.08.2020 01:22 15,2 C 13,9 C 13,9 C 98 % 1014,9 hPa 0,2 l/m 0 min 2 min 0 W/m 3,2 km/h (1 Bft) 97,87 %
31.08.2020 01:24 15,2 C 13,9 C 13,9 C 98 % 1014,9 hPa 0,0 l/m 0 min 2 min 0 W/m 0,0 km/h (0 Bft) 95,74 %
31.08.2020 01:26 15,2 C 13,9 C 13,9 C 98 % 1014,9 hPa 0,0 l/m 0 min 2 min 0 W/m 0,0 km/h (0 Bft) 95,74 %
31.08.2020 01:28 15,2 C 13,9 C 13,9 C 98 % 1014,9 hPa 0,0 l/m 0 min 2 min 0 W/m 3,2 km/h (1 Bft) 95,65 %
31.08.2020 01:30 15,2 C 13,9 C 13,9 C 98 % 1015,0 hPa 0,0 l/m 0 min 2 min 0 W/m 0,0 km/h (0 Bft) 97,87 %
31.08.2020 01:32 15,1 C 13,9 C 13,9 C 98 % 1015,0 hPa 0,0 l/m 0 min 0 min 0 W/m 3,2 km/h (1 Bft) 95,83 %
31.08.2020 01:34 15,1 C 13,9 C 13,9 C 98 % 1015,0 hPa 0,0 l/m 0 min 0 min 0 W/m 9,7 km/h (2 Bft) 97,87 %
31.08.2020 01:36 15,1 C 13,9 C 13,9 C 98 % 1015,0 hPa 0,0 l/m 0 min 2 min 0 W/m 3,2 km/h (1 Bft) 95,74 %
31.08.2020 01:38 15,1 C 13,9 C 13,9 C 98 % 1015,0 hPa 0,0 l/m 0 min 2 min 0 W/m 6,4 km/h (2 Bft) 96,08 %
31.08.2020 01:40 15,1 C 13,9 C 13,9 C 98 % 1015,0 hPa 0,0 l/m 0 min 2 min 0 W/m 3,2 km/h (1 Bft) 97,87 %
31.08.2020 01:42 15,1 C 13,9 C 13,9 C 98 % 1015,0 hPa 0,0 l/m 0 min 2 min 0 W/m 3,2 km/h (1 Bft) 93,48 %
31.08.2020 01:44 15,0 C 13,9 C 13,9 C 98 % 1015,1 hPa 0,0 l/m 0 min 0 min 0 W/m 0,0 km/h (0 Bft) 95,74 %
31.08.2020 01:46 15,0 C 13,9 C 13,9 C 98 % 1015,1 hPa 0,0 l/m 0 min 0 min 0 W/m 3,2 km/h (1 Bft) 97,87 %
31.08.2020 01:48 14,9 C 13,3 C 13,9 C 98 % 1015,1 hPa 0,0 l/m 0 min 0 min 0 W/m 9,7 km/h (2 Bft) 97,87 %
31.08.2020 01:50 14,9 C 13,3 C 13,9 C 98 % 1015,2 hPa 0,0 l/m 0 min 0 min 0 W/m 9,7 km/h (2 Bft) 97,87 %
31.08.2020 01:52 14,9 C 13,3 C 13,9 C 98 % 1015,2 hPa 0,0 l/m 0 min 0 min 0 W/m 3,2 km/h (1 Bft) 95,74 %
31.08.2020 01:54 14,9 C 13,3 C 13,9 C 98 % 1015,2 hPa 0,0 l/m 0 min 0 min 0 W/m 3,2 km/h (1 Bft) 97,83 %
31.08.2020 01:56 14,9 C 13,3 C 13,9 C 98 % 1015,2 hPa 0,0 l/m 0 min 2 min 0 W/m 0,0 km/h (0 Bft) 97,87 %
31.08.2020 01:58 14,8 C 13,3 C 13,9 C 98 % 1015,2 hPa 0,0 l/m 0 min 2 min 0 W/m 0,0 km/h (0 Bft) 97,87 %
31.08.2020 02:00 14,8 C 13,3 C 13,9 C 98 % 1015,2 hPa 0,0 l/m 0 min 2 min 0 W/m 0,0 km/h (0 Bft) 93,62 %
31.08.2020 02:02 14,8 C 13,3 C 13,9 C 98 % 1015,2 hPa 0,0 l/m 0 min 2 min 0 W/m 6,4 km/h (2 Bft) 100,00 %
31.08.2020 02:04 14,8 C 13,3 C 13,9 C 98 % 1015,2 hPa 0,2 l/m 0 min 2 min 0 W/m 3,2 km/h (1 Bft) 93,62 %
31.08.2020 02:06 14,8 C 13,3 C 13,9 C 98 % 1015,2 hPa 0,0 l/m 0 min 0 min 0 W/m 3,2 km/h (1 Bft) 98,28 %
31.08.2020 02:08 14,8 C 13,3 C 13,9 C 98 % 1015,2 hPa 0,0 l/m 0 min 2 min 0 W/m 3,2 km/h (1 Bft) 97,22 %
31.08.2020 02:10 14,8 C 13,3 C 13,9 C 98 % 1015,3 hPa 0,0 l/m 0 min 0 min 0 W/m 0,0 km/h (0 Bft) 97,83 %
31.08.2020 02:12 14,7 C 13,3 C 13,3 C 98 % 1015,3 hPa 0,0 l/m 0 min 0 min 0 W/m 3,2 km/h (1 Bft) 100,00 %
31.08.2020 02:14 14,7 C 13,3 C 13,9 C 98 % 1015,3 hPa 0,0 l/m 0 min 0 min 0 W/m 3,2 km/h (1 Bft) 100,00 %
31.08.2020 02:16 14,7 C 13,3 C 13,3 C 98 % 1015,3 hPa 0,0 l/m 0 min 0 min 0 W/m 3,2 km/h (1 Bft) 100,00 %
31.08.2020 02:18 14,7 C 13,3 C 13,3 C 98 % 1015,3 hPa 0,0 l/m 0 min 0 min 0 W/m 3,2 km/h (1 Bft) 97,87 %
31.08.2020 02:20 14,7 C 13,3 C 13,3 C 98 % 1015,3 hPa 0,0 l/m 0 min 0 min 0 W/m 0,0 km/h (0 Bft) 100,00 %
31.08.2020 02:22 14,6 C 13,3 C 13,3 C 98 % 1015,3 hPa 0,0 l/m 0 min 0 min 0 W/m 3,2 km/h (1 Bft) 97,83 %
31.08.2020 02:24 14,6 C 13,3 C 13,3 C 98 % 1015,3 hPa 0,0 l/m 0 min 0 min 0 W/m 3,2 km/h (1 Bft) 100,00 %
31.08.2020 02:26 14,6 C 13,3 C 13,3 C 98 % 1015,3 hPa 0,0 l/m 0 min 0 min 0 W/m 0,0 km/h (0 Bft) 93,62 %
31.08.2020 02:28 14,6 C 13,3 C 13,3 C 98 % 1015,3 hPa 0,0 l/m 0 min 0 min 0 W/m 0,0 km/h (0 Bft) 100,00 %
31.08.2020 02:30 14,6 C 13,3 C 13,3 C 98 % 1015,3 hPa 0,0 l/m 0 min 0 min 0 W/m 0,0 km/h (0 Bft) 97,87 %
31.08.2020 02:32 14,6 C 13,3 C 13,3 C 98 % 1015,3 hPa 0,0 l/m 0 min 0 min 0 W/m 3,2 km/h (1 Bft) 100,00 %
31.08.2020 02:34 14,6 C 13,3 C 13,3 C 98 % 1015,3 hPa 0,0 l/m 0 min 0 min 0 W/m 3,2 km/h (1 Bft) 95,74 %
31.08.2020 02:36 14,5 C 13,3 C 13,3 C 98 % 1015,3 hPa 0,0 l/m 0 min 0 min 0 W/m 0,0 km/h (0 Bft) 100,00 %
31.08.2020 02:38 14,5 C 13,3 C 13,3 C 98 % 1015,3 hPa 0,0 l/m 0 min 0 min 0 W/m 0,0 km/h (0 Bft) 97,87 %
31.08.2020 02:40 14,5 C 13,3 C 13,3 C 98 % 1015,3 hPa 0,0 l/m 0 min 0 min 0 W/m 3,2 km/h (1 Bft) 97,87 %
31.08.2020 02:42 14,4 C 13,3 C 13,3 C 98 % 1015,4 hPa 0,0 l/m 0 min 0 min 0 W/m 0,0 km/h (0 Bft) 97,87 %
31.08.2020 02:44 14,4 C 13,3 C 13,3 C 98 % 1015,4 hPa 0,0 l/m 0 min 0 min 0 W/m 3,2 km/h (1 Bft) 97,83 %
31.08.2020 02:46 14,4 C 13,3 C 13,3 C 98 % 1015,3 hPa 0,0 l/m 0 min 0 min 0 W/m 3,2 km/h (1 Bft) 97,87 %
31.08.2020 02:48 14,4 C 13,3 C 13,3 C 98 % 1015,4 hPa 0,0 l/m 0 min 0 min 0 W/m 0,0 km/h (0 Bft) 91,49 %
31.08.2020 02:50 14,4 C 13,3 C 13,3 C 98 % 1015,3 hPa 0,0 l/m 0 min 0 min 0 W/m 0,0 km/h (0 Bft) 97,87 %
31.08.2020 02:52 14,4 C 13,3 C 13,3 C 98 % 1015,3 hPa 0,0 l/m 0 min 0 min 0 W/m 3,2 km/h (1 Bft) 93,62 %
31.08.2020 02:54 14,4 C 13,3 C 13,3 C 98 % 1015,4 hPa 0,0 l/m 0 min 0 min 0 W/m 3,2 km/h (1 Bft) 97,87 %
31.08.2020 02:56 14,4 C 13,3 C 13,3 C 98 % 1015,3 hPa 0,0 l/m 0 min 0 min 0 W/m 0,0 km/h (0 Bft) 97,83 %
31.08.2020 02:58 14,4 C 13,3 C 13,3 C 98 % 1015,4 hPa 0,0 l/m 0 min 0 min 0 W/m 0,0 km/h (0 Bft) 97,87 %
31.08.2020 03:00 14,3 C 13,3 C 13,3 C 98 % 1015,4 hPa 0,0 l/m 0 min 0 min 0 W/m 0,0 km/h (0 Bft) 97,87 %
31.08.2020 03:02 14,3 C 13,3 C 13,3 C 98 % 1015,4 hPa 0,0 l/m 0 min 0 min 0 W/m 6,4 km/h (2 Bft) 96,23 %
31.08.2020 03:04 14,3 C 13,3 C 13,3 C 98 % 1015,4 hPa 0,0 l/m 0 min 0 min 0 W/m 0,0 km/h (0 Bft) 95,74 %
31.08.2020 03:06 14,3 C 13,3 C 13,3 C 98 % 1015,4 hPa 0,0 l/m 0 min 0 min 0 W/m 0,0 km/h (0 Bft) 97,87 %
31.08.2020 03:08 14,3 C 13,3 C 13,3 C 99 % 1015,5 hPa 0,0 l/m 0 min 0 min 0 W/m 0,0 km/h (0 Bft) 97,87 %
31.08.2020 03:10 14,3 C 13,3 C 13,3 C 99 % 1015,4 hPa 0,0 l/m 0 min 0 min 0 W/m 0,0 km/h (0 Bft) 97,87 %
31.08.2020 03:12 14,3 C 13,3 C 13,3 C 99 % 1015,4 hPa 0,0 l/m 0 min 0 min 0 W/m 0,0 km/h (0 Bft) 95,65 %
31.08.2020 03:14 14,3 C 13,3 C 13,3 C 99 % 1015,5 hPa 0,0 l/m 0 min 0 min 0 W/m 3,2 km/h (1 Bft) 97,87 %
31.08.2020 03:16 14,3 C 13,3 C 13,3 C 99 % 1015,5 hPa 0,0 l/m 0 min 0 min 0 W/m 0,0 km/h (0 Bft) 97,87 %
31.08.2020 03:18 14,3 C 13,3 C 13,3 C 99 % 1015,5 hPa 0,0 l/m 0 min 0 min 0 W/m 0,0 km/h (0 Bft) 97,87 %
31.08.2020 03:20 14,3 C 13,3 C 13,3 C 99 % 1015,5 hPa 0,0 l/m 0 min 0 min 0 W/m 9,7 km/h (2 Bft) 93,62 %
31.08.2020 03:22 14,3 C 13,3 C 13,3 C 99 % 1015,5 hPa 0,0 l/m 0 min 0 min 0 W/m 0,0 km/h (0 Bft) 97,87 %
31.08.2020 03:24 14,3 C 13,3 C 13,3 C 99 % 1015,5 hPa 0,0 l/m 0 min 0 min 0 W/m 3,2 km/h (1 Bft) 97,83 %
31.08.2020 03:26 14,3 C 13,3 C 13,3 C 99 % 1015,6 hPa 0,0 l/m 0 min 0 min 0 W/m 0,0 km/h (0 Bft) 97,87 %
31.08.2020 03:28 14,3 C 13,3 C 13,3 C 99 % 1015,6 hPa 0,0 l/m 0 min 0 min 0 W/m 0,0 km/h (0 Bft) 100,00 %
31.08.2020 03:30 14,3 C 13,3 C 13,3 C 99 % 1015,6 hPa 0,0 l/m 0 min 0 min 0 W/m 0,0 km/h (0 Bft) 100,00 %
31.08.2020 03:32 14,3 C 13,3 C 13,3 C 99 % 1015,6 hPa 0,0 l/m 0 min 0 min 0 W/m 0,0 km/h (0 Bft) 100,00 %
31.08.2020 03:34 14,3 C 13,3 C 13,3 C 99 % 1015,6 hPa 0,0 l/m 0 min 0 min 0 W/m 0,0 km/h (0 Bft) 100,00 %
31.08.2020 03:36 14,3 C 13,3 C 13,3 C 99 % 1015,6 hPa 0,0 l/m 0 min 0 min 0 W/m 0,0 km/h (0 Bft) 100,00 %
31.08.2020 03:38 14,3 C 13,3 C 13,3 C 99 % 1015,6 hPa 0,0 l/m 0 min 0 min 0 W/m 0,0 km/h (0 Bft) 100,00 %
31.08.2020 03:40 14,3 C 13,3 C 13,3 C 99 % 1015,6 hPa 0,0 l/m 0 min 0 min 0 W/m 0,0 km/h (0 Bft) 97,87 %
31.08.2020 03:42 14,3 C 13,3 C 13,3 C 99 % 1015,6 hPa 0,0 l/m 0 min 0 min 0 W/m 6,4 km/h (2 Bft) 100,00 %
31.08.2020 03:44 14,3 C 13,3 C 13,3 C 99 % 1015,7 hPa 0,0 l/m 0 min 0 min 0 W/m 3,2 km/h (1 Bft) 100,00 %
31.08.2020 03:46 14,3 C 13,3 C 13,3 C 99 % 1015,6 hPa 0,0 l/m 0 min 2 min 0 W/m 3,2 km/h (1 Bft) 97,83 %
31.08.2020 03:48 14,3 C 13,3 C 13,3 C 99 % 1015,6 hPa 0,0 l/m 0 min 2 min 0 W/m 0,0 km/h (0 Bft) 100,00 %
31.08.2020 03:50 14,3 C 13,3 C 13,3 C 99 % 1015,7 hPa 0,0 l/m 0 min 2 min 0 W/m 0,0 km/h (0 Bft) 100,00 %
31.08.2020 03:52 14,3 C 12,8 C 13,3 C 99 % 1015,7 hPa 0,0 l/m 0 min 2 min 0 W/m 3,2 km/h (1 Bft) 100,00 %
31.08.2020 03:54 14,3 C 12,8 C 13,3 C 99 % 1015,6 hPa 0,0 l/m 0 min 2 min 0 W/m 0,0 km/h (0 Bft) 100,00 %
31.08.2020 03:56 14,3 C 12,8 C 13,3 C 99 % 1015,6 hPa 0,0 l/m 0 min 0 min 0 W/m 0,0 km/h (0 Bft) 97,87 %
31.08.2020 03:58 14,3 C 12,8 C 13,3 C 99 % 1015,6 hPa 0,0 l/m 0 min 2 min 0 W/m 3,2 km/h (1 Bft) 100,00 %
31.08.2020 04:00 14,3 C 12,8 C 13,3 C 99 % 1015,7 hPa 0,0 l/m 0 min 2 min 0 W/m 6,4 km/h (2 Bft) 100,00 %
31.08.2020 04:02 14,3 C 12,8 C 13,3 C 99 % 1015,7 hPa 0,0 l/m 0 min 0 min 0 W/m 0,0 km/h (0 Bft) 96,43 %
31.08.2020 04:04 14,3 C 12,8 C 13,3 C 99 % 1015,7 hPa 0,0 l/m 0 min 0 min 0 W/m 0,0 km/h (0 Bft) 100,00 %
31.08.2020 04:06 14,2 C 12,8 C 13,3 C 99 % 1015,7 hPa 0,0 l/m 0 min 0 min 0 W/m 3,2 km/h (1 Bft) 97,87 %
31.08.2020 04:08 14,2 C 12,8 C 13,3 C 99 % 1015,7 hPa 0,0 l/m 0 min 0 min 0 W/m 0,0 km/h (0 Bft) 95,74 %
31.08.2020 04:10 14,2 C 12,8 C 13,3 C 99 % 1015,7 hPa 0,0 l/m 0 min 0 min 0 W/m 0,0 km/h (0 Bft) 95,65 %
31.08.2020 04:12 14,2 C 12,8 C 13,3 C 99 % 1015,7 hPa 0,0 l/m 0 min 0 min 0 W/m 0,0 km/h (0 Bft) 95,74 %
31.08.2020 04:14 14,2 C 12,8 C 13,3 C 99 % 1015,8 hPa 0,0 l/m 0 min 0 min 0 W/m 3,2 km/h (1 Bft) 95,74 %
31.08.2020 04:16 14,1 C 12,8 C 13,3 C 99 % 1015,8 hPa 0,0 l/m 0 min 0 min 0 W/m 12,9 km/h (3 Bft) 93,62 %
31.08.2020 04:18 14,1 C 12,8 C 13,3 C 99 % 1015,9 hPa 0,0 l/m 0 min 0 min 0 W/m 3,2 km/h (1 Bft) 95,74 %
31.08.2020 04:20 14,1 C 12,8 C 13,3 C 99 % 1015,9 hPa 0,0 l/m 0 min 0 min 0 W/m 0,0 km/h (0 Bft) 94,29 %
31.08.2020 04:22 14,1 C 12,8 C 13,3 C 99 % 1015,9 hPa 0,0 l/m 0 min 0 min 0 W/m 0,0 km/h (0 Bft) 95,08 %
31.08.2020 04:24 14,1 C 12,8 C 12,8 C 99 % 1015,9 hPa 0,0 l/m 0 min 0 min 0 W/m 0,0 km/h (0 Bft) 95,74 %
31.08.2020 04:26 14,1 C 12,8 C 12,8 C 99 % 1015,9 hPa 0,0 l/m 0 min 0 min 0 W/m 0,0 km/h (0 Bft) 95,74 %
31.08.2020 04:28 14,1 C 12,8 C 13,3 C 99 % 1015,9 hPa 0,0 l/m 0 min 0 min 0 W/m 0,0 km/h (0 Bft) 95,74 %
31.08.2020 04:30 14,1 C 12,8 C 13,3 C 99 % 1015,9 hPa 0,0 l/m 0 min 0 min 0 W/m 6,4 km/h (2 Bft) 95,74 %
31.08.2020 04:32 14,1 C 12,8 C 13,3 C 99 % 1015,9 hPa 0,0 l/m 0 min 0 min 0 W/m 0,0 km/h (0 Bft) 95,65 %
31.08.2020 04:34 14,1 C 12,8 C 13,3 C 99 % 1015,9 hPa 0,0 l/m 0 min 0 min 0 W/m 3,2 km/h (1 Bft) 95,74 %
31.08.2020 04:36 14,1 C 12,8 C 13,3 C 99 % 1015,9 hPa 0,0 l/m 0 min 0 min 0 W/m 3,2 km/h (1 Bft) 91,49 %
31.08.2020 04:38 14,0 C 12,8 C 13,3 C 99 % 1015,9 hPa 0,0 l/m 0 min 0 min 0 W/m 0,0 km/h (0 Bft) 95,74 %
31.08.2020 04:40 14,0 C 12,8 C 12,8 C 99 % 1015,9 hPa 0,0 l/m 0 min 0 min 0 W/m 0,0 km/h (0 Bft) 95,74 %
31.08.2020 04:42 14,0 C 12,8 C 12,8 C 99 % 1015,9 hPa 0,0 l/m 0 min 0 min 0 W/m 0,0 km/h (0 Bft) 93,62 %
31.08.2020 04:44 14,0 C 12,8 C 12,8 C 99 % 1015,9 hPa 0,0 l/m 0 min 0 min 0 W/m 0,0 km/h (0 Bft) 93,48 %
31.08.2020 04:46 14,0 C 12,8 C 12,8 C 99 % 1016,0 hPa 0,0 l/m 0 min 0 min 0 W/m 3,2 km/h (1 Bft) 95,74 %
31.08.2020 04:48 14,0 C 12,8 C 13,3 C 99 % 1016,0 hPa 0,0 l/m 0 min 0 min 0 W/m 3,2 km/h (1 Bft) 95,74 %
31.08.2020 04:50 13,9 C 12,8 C 12,8 C 99 % 1016,0 hPa 0,0 l/m 0 min 0 min 0 W/m 0,0 km/h (0 Bft) 95,74 %
31.08.2020 04:52 13,9 C 12,8 C 12,8 C 99 % 1016,0 hPa 0,0 l/m 0 min 0 min 0 W/m 3,2 km/h (1 Bft) 95,74 %
31.08.2020 04:54 13,9 C 12,8 C 12,8 C 99 % 1016,0 hPa 0,0 l/m 0 min 0 min 0 W/m 3,2 km/h (1 Bft) 93,62 %
31.08.2020 04:56 13,9 C 12,8 C 12,8 C 99 % 1016,0 hPa 0,0 l/m 0 min 0 min 0 W/m 0,0 km/h (0 Bft) 95,65 %
31.08.2020 04:58 13,9 C 12,8 C 12,8 C 99 % 1016,0 hPa 0,0 l/m 0 min 0 min 0 W/m 6,4 km/h (2 Bft) 95,74 %
31.08.2020 05:00 13,9 C 12,8 C 12,8 C 99 % 1016,0 hPa 0,0 l/m 0 min 0 min 0 W/m 3,2 km/h (1 Bft) 97,87 %
31.08.2020 05:02 13,9 C 12,8 C 12,8 C 99 % 1016,0 hPa 0,0 l/m 0 min 0 min 0 W/m 3,2 km/h (1 Bft) 97,87 %
31.08.2020 05:04 13,9 C 12,8 C 12,8 C 99 % 1016,0 hPa 0,0 l/m 0 min 0 min 0 W/m 0,0 km/h (0 Bft) 97,87 %
31.08.2020 05:06 13,8 C 12,8 C 12,8 C 99 % 1016,0 hPa 0,0 l/m 0 min 0 min 0 W/m 3,2 km/h (1 Bft) 97,87 %
31.08.2020 05:08 13,8 C 12,8 C 12,8 C 99 % 1016,0 hPa 0,0 l/m 0 min 0 min 0 W/m 3,2 km/h (1 Bft) 97,83 %
31.08.2020 05:10 13,8 C 12,8 C 12,8 C 99 % 1016,0 hPa 0,0 l/m 0 min 0 min 0 W/m 3,2 km/h (1 Bft) 100,00 %
31.08.2020 05:12 13,8 C 12,8 C 12,8 C 99 % 1016,0 hPa 0,0 l/m 0 min 0 min 0 W/m 0,0 km/h (0 Bft) 100,00 %
31.08.2020 05:14 13,8 C 12,8 C 12,8 C 99 % 1016,1 hPa 0,0 l/m 0 min 0 min 0 W/m 3,2 km/h (1 Bft) 100,00 %
31.08.2020 05:16 13,8 C 12,8 C 12,8 C 99 % 1016,1 hPa 0,0 l/m 0 min 0 min 0 W/m 3,2 km/h (1 Bft) 93,62 %
31.08.2020 05:18 13,8 C 12,8 C 12,8 C 99 % 1016,1 hPa 0,0 l/m 0 min 0 min 0 W/m 3,2 km/h (1 Bft) 97,87 %
31.08.2020 05:20 13,8 C 12,8 C 12,8 C 99 % 1016,1 hPa 0,0 l/m 0 min 0 min 0 W/m 3,2 km/h (1 Bft) 100,00 %
31.08.2020 05:22 13,8 C 12,8 C 12,8 C 99 % 1016,1 hPa 0,0 l/m 0 min 0 min 0 W/m 6,4 km/h (2 Bft) 100,00 %
31.08.2020 05:24 13,8 C 12,8 C 12,8 C 99 % 1016,1 hPa 0,0 l/m 0 min 0 min 0 W/m 0,0 km/h (0 Bft) 100,00 %
31.08.2020 05:26 13,8 C 12,8 C 12,8 C 99 % 1016,1 hPa 0,0 l/m 0 min 0 min 0 W/m 0,0 km/h (0 Bft) 91,49 %
31.08.2020 05:28 13,8 C 12,8 C 12,8 C 99 % 1016,2 hPa 0,0 l/m 0 min 0 min 0 W/m 0,0 km/h (0 Bft) 100,00 %
31.08.2020 05:30 13,8 C 12,8 C 12,8 C 99 % 1016,2 hPa 0,0 l/m 0 min 0 min 0 W/m 0,0 km/h (0 Bft) 97,83 %
31.08.2020 05:32 13,7 C 12,8 C 12,8 C 99 % 1016,2 hPa 0,0 l/m 0 min 0 min 0 W/m 9,7 km/h (2 Bft) 93,75 %
31.08.2020 05:34 13,7 C 12,8 C 12,8 C 99 % 1016,2 hPa 0,0 l/m 0 min 0 min 0 W/m 19,3 km/h (3 Bft) 97,87 %
31.08.2020 05:36 13,7 C 12,8 C 12,8 C 99 % 1016,2 hPa 0,0 l/m 0 min 0 min 0 W/m 16,1 km/h (3 Bft) 97,87 %
31.08.2020 05:38 13,7 C 12,8 C 12,8 C 99 % 1016,2 hPa 0,0 l/m 0 min 0 min 0 W/m 0,0 km/h (0 Bft) 97,87 %
31.08.2020 05:40 13,7 C 12,8 C 12,8 C 99 % 1016,2 hPa 0,0 l/m 0 min 0 min 0 W/m 0,0 km/h (0 Bft) 97,87 %
31.08.2020 05:42 13,7 C 12,8 C 12,8 C 99 % 1016,3 hPa 0,0 l/m 0 min 0 min 0 W/m 3,2 km/h (1 Bft) 97,62 %
31.08.2020 05:44 13,7 C 12,8 C 12,8 C 99 % 1016,3 hPa 0,0 l/m 0 min 0 min 0 W/m 0,0 km/h (0 Bft) 95,65 %
31.08.2020 05:46 13,7 C 12,8 C 12,8 C 99 % 1016,3 hPa 0,0 l/m 0 min 0 min 0 W/m 3,2 km/h (1 Bft) 97,87 %
31.08.2020 05:48 13,7 C 12,8 C 12,8 C 99 % 1016,3 hPa 0,0 l/m 0 min 0 min 0 W/m 3,2 km/h (1 Bft) 97,87 %
31.08.2020 05:50 13,7 C 12,8 C 12,8 C 99 % 1016,3 hPa 0,0 l/m 0 min 0 min 0 W/m 3,2 km/h (1 Bft) 97,87 %
31.08.2020 05:52 13,7 C 12,8 C 12,8 C 99 % 1016,4 hPa 0,0 l/m 0 min 0 min 0 W/m 6,4 km/h (2 Bft) 95,74 %
31.08.2020 05:54 13,7 C 12,8 C 12,8 C 99 % 1016,4 hPa 0,0 l/m 0 min 0 min 0 W/m 6,4 km/h (2 Bft) 95,74 %
31.08.2020 05:56 13,7 C 12,8 C 12,8 C 99 % 1016,3 hPa 0,0 l/m 0 min 0 min 0 W/m 6,4 km/h (2 Bft) 97,83 %
31.08.2020 05:58 13,7 C 12,8 C 12,8 C 99 % 1016,4 hPa 0,0 l/m 0 min 0 min 0 W/m 6,4 km/h (2 Bft) 97,87 %
31.08.2020 06:00 13,7 C 12,8 C 12,8 C 99 % 1016,4 hPa 0,0 l/m 0 min 0 min 0 W/m 0,0 km/h (0 Bft) 97,87 %
31.08.2020 06:02 13,7 C 12,8 C 12,8 C 99 % 1016,4 hPa 0,0 l/m 0 min 0 min 0 W/m 6,4 km/h (2 Bft) 95,74 %
31.08.2020 06:04 13,7 C 12,8 C 12,8 C 99 % 1016,4 hPa 0,0 l/m 0 min 0 min 0 W/m 0,0 km/h (0 Bft) 97,87 %
31.08.2020 06:07 13,7 C 12,8 C 12,8 C 99 % 1016,5 hPa 0,0 l/m 0 min 0 min 0 W/m 0,0 km/h (0 Bft) 97,26 %
31.08.2020 06:08 13,7 C 12,8 C 12,8 C 99 % 1016,5 hPa 0,0 l/m 0 min 0 min 0 W/m 3,2 km/h (1 Bft) 95,65 %
31.08.2020 06:10 13,7 C 12,8 C 12,8 C 99 % 1016,5 hPa 0,0 l/m 0 min 0 min 0 W/m 0,0 km/h (0 Bft) 97,87 %
31.08.2020 06:12 13,7 C 12,8 C 12,8 C 99 % 1016,5 hPa 0,0 l/m 0 min 0 min 0 W/m 0,0 km/h (0 Bft) 97,87 %
31.08.2020 06:14 13,7 C 12,8 C 12,8 C 99 % 1016,5 hPa 0,0 l/m 0 min 0 min 0 W/m 0,0 km/h (0 Bft) 97,87 %
31.08.2020 06:16 13,7 C 12,8 C 12,8 C 99 % 1016,5 hPa 0,0 l/m 0 min 0 min 0 W/m 0,0 km/h (0 Bft) 100,00 %
31.08.2020 06:18 13,7 C 12,8 C 12,8 C 99 % 1016,5 hPa 0,0 l/m 0 min 0 min 0 W/m 0,0 km/h (0 Bft) 100,00 %
31.08.2020 06:20 13,8 C 12,8 C 12,8 C 99 % 1016,5 hPa 0,0 l/m 0 min 0 min 0 W/m 3,2 km/h (1 Bft) 100,00 %
31.08.2020 06:22 13,7 C 12,8 C 12,8 C 99 % 1016,6 hPa 0,0 l/m 0 min 0 min 0 W/m 3,2 km/h (1 Bft) 100,00 %
31.08.2020 06:24 13,7 C 12,8 C 12,8 C 99 % 1016,6 hPa 0,0 l/m 0 min 0 min 0 W/m 3,2 km/h (1 Bft) 100,00 %
31.08.2020 06:26 13,8 C 12,8 C 12,8 C 99 % 1016,6 hPa 0,0 l/m 0 min 0 min 0 W/m 0,0 km/h (0 Bft) 100,00 %
31.08.2020 06:28 13,8 C 12,8 C 12,8 C 99 % 1016,6 hPa 0,0 l/m 0 min 0 min 0 W/m 0,0 km/h (0 Bft) 97,87 %
31.08.2020 06:30 13,8 C 12,8 C 12,8 C 99 % 1016,7 hPa 0,0 l/m 0 min 0 min 0 W/m 3,2 km/h (1 Bft) 100,00 %
31.08.2020 06:32 13,8 C 12,8 C 12,8 C 99 % 1016,7 hPa 0,0 l/m 0 min 0 min 0 W/m 12,9 km/h (3 Bft) 95,74 %
31.08.2020 06:34 13,8 C 12,8 C 12,8 C 99 % 1016,7 hPa 0,0 l/m 0 min 0 min 0 W/m 6,4 km/h (2 Bft) 100,00 %
31.08.2020 06:36 13,8 C 12,8 C 12,8 C 99 % 1016,7 hPa 0,0 l/m 0 min 0 min 0 W/m 3,2 km/h (1 Bft) 100,00 %
31.08.2020 06:38 13,8 C 12,8 C 12,8 C 99 % 1016,8 hPa 0,0 l/m 0 min 0 min 0 W/m 12,9 km/h (3 Bft) 100,00 %
31.08.2020 06:40 13,8 C 12,8 C 12,8 C 99 % 1016,8 hPa 0,0 l/m 0 min 0 min 0 W/m 0,0 km/h (0 Bft) 100,00 %
31.08.2020 06:42 13,8 C 12,8 C 12,8 C 99 % 1016,8 hPa 0,0 l/m 0 min 0 min 0 W/m 3,2 km/h (1 Bft) 97,87 %
31.08.2020 06:44 13,8 C 12,8 C 12,8 C 99 % 1016,8 hPa 0,0 l/m 0 min 0 min 0 W/m 3,2 km/h (1 Bft) 97,87 %
31.08.2020 06:46 13,8 C 12,8 C 12,8 C 99 % 1016,8 hPa 0,0 l/m 0 min 0 min 0 W/m 0,0 km/h (0 Bft) 100,00 %
31.08.2020 06:48 13,8 C 12,8 C 12,8 C 99 % 1016,9 hPa 0,0 l/m 0 min 0 min 0 W/m 0,0 km/h (0 Bft) 97,87 %
31.08.2020 06:50 13,8 C 12,8 C 12,8 C 99 % 1016,8 hPa 0,0 l/m 0 min 0 min 0 W/m 0,0 km/h (0 Bft) 100,00 %
31.08.2020 06:52 13,8 C 12,8 C 12,8 C 99 % 1016,9 hPa 0,0 l/m 0 min 0 min 0 W/m 9,7 km/h (2 Bft) 100,00 %
31.08.2020 06:54 13,8 C 12,8 C 12,8 C 99 % 1016,9 hPa 0,0 l/m 0 min 0 min 0 W/m 0,0 km/h (0 Bft) 100,00 %
31.08.2020 06:56 13,8 C 12,8 C 12,8 C 99 % 1016,9 hPa 0,0 l/m 0 min 0 min 0 W/m 3,2 km/h (1 Bft) 97,87 %
31.08.2020 06:58 13,8 C 12,8 C 12,8 C 99 % 1016,9 hPa 0,0 l/m 0 min 0 min 0 W/m 0,0 km/h (0 Bft) 97,87 %
31.08.2020 07:00 13,8 C 12,8 C 12,8 C 99 % 1017,0 hPa 0,0 l/m 0 min 0 min 0 W/m 0,0 km/h (0 Bft) 97,87 %
31.08.2020 07:02 13,8 C 12,8 C 12,8 C 100 % 1017,0 hPa 0,0 l/m 0 min 0 min 0 W/m 6,4 km/h (2 Bft) 95,74 %
31.08.2020 07:04 13,8 C 12,8 C 12,8 C 100 % 1017,0 hPa 0,0 l/m 0 min 0 min 0 W/m 0,0 km/h (0 Bft) 97,83 %
31.08.2020 07:06 13,8 C 12,8 C 12,8 C 100 % 1017,1 hPa 0,0 l/m 0 min 0 min 0 W/m 3,2 km/h (1 Bft) 97,87 %
31.08.2020 07:08 13,8 C 12,8 C 12,8 C 100 % 1017,1 hPa 0,0 l/m 0 min 0 min 0 W/m 6,4 km/h (2 Bft) 97,87 %
31.08.2020 07:10 13,8 C 12,8 C 12,8 C 100 % 1017,1 hPa 0,0 l/m 0 min 0 min 0 W/m 0,0 km/h (0 Bft) 97,87 %
31.08.2020 07:12 13,8 C 12,8 C 12,8 C 100 % 1017,1 hPa 0,0 l/m 0 min 0 min 0 W/m 6,4 km/h (2 Bft) 93,62 %
31.08.2020 07:14 13,8 C 12,8 C 12,8 C 100 % 1017,1 hPa 0,0 l/m 0 min 0 min 3 W/m 3,2 km/h (1 Bft) 95,74 %
31.08.2020 07:16 13,8 C 12,8 C 12,8 C 100 % 1017,2 hPa 0,0 l/m 0 min 0 min 5 W/m 0,0 km/h (0 Bft) 97,83 %
31.08.2020 07:18 13,8 C 12,8 C 12,8 C 100 % 1017,2 hPa 0,0 l/m 0 min 0 min 5 W/m 0,0 km/h (0 Bft) 95,74 %
31.08.2020 07:20 13,8 C 12,8 C 12,8 C 100 % 1017,2 hPa 0,0 l/m 0 min 0 min 5 W/m 3,2 km/h (1 Bft) 97,87 %
31.08.2020 07:22 13,8 C 12,8 C 12,8 C 100 % 1017,2 hPa 0,0 l/m 0 min 0 min 7 W/m 3,2 km/h (1 Bft) 97,87 %
31.08.2020 07:24 13,8 C 12,8 C 12,8 C 100 % 1017,2 hPa 0,0 l/m 0 min 0 min 7 W/m 0,0 km/h (0 Bft) 97,87 %
31.08.2020 07:26 13,8 C 12,8 C 12,8 C 100 % 1017,3 hPa 0,0 l/m 0 min 0 min 9 W/m 6,4 km/h (2 Bft) 97,87 %
31.08.2020 07:28 13,8 C 12,8 C 12,8 C 100 % 1017,3 hPa 0,0 l/m 0 min 0 min 10 W/m 0,0 km/h (0 Bft) 95,65 %
31.08.2020 07:30 13,8 C 12,8 C 12,8 C 100 % 1017,3 hPa 0,0 l/m 0 min 0 min 12 W/m 0,0 km/h (0 Bft) 95,74 %
31.08.2020 07:32 13,8 C 12,8 C 12,8 C 100 % 1017,3 hPa 0,0 l/m 0 min 0 min 14 W/m 6,4 km/h (2 Bft) 97,92 %
31.08.2020 07:34 13,8 C 12,8 C 12,8 C 100 % 1017,4 hPa 0,0 l/m 0 min 0 min 16 W/m 0,0 km/h (0 Bft) 97,87 %
31.08.2020 07:36 13,8 C 12,8 C 12,8 C 100 % 1017,4 hPa 0,0 l/m 0 min 0 min 18 W/m 16,1 km/h (3 Bft) 97,87 %
31.08.2020 07:38 13,8 C 12,8 C 12,8 C 100 % 1017,4 hPa 0,0 l/m 0 min 0 min 18 W/m 3,2 km/h (1 Bft) 97,83 %
31.08.2020 07:40 13,8 C 12,8 C 12,8 C 100 % 1017,5 hPa 0,0 l/m 0 min 0 min 19 W/m 3,2 km/h (1 Bft) 97,87 %
31.08.2020 07:42 13,8 C 12,8 C 12,8 C 100 % 1017,5 hPa 0,0 l/m 0 min 0 min 20 W/m 3,2 km/h (1 Bft) 97,87 %
31.08.2020 07:44 13,8 C 12,8 C 12,8 C 100 % 1017,5 hPa 0,0 l/m 0 min 0 min 21 W/m 3,2 km/h (1 Bft) 97,73 %
31.08.2020 07:46 13,8 C 12,8 C 12,8 C 100 % 1017,6 hPa 0,0 l/m 0 min 0 min 22 W/m 0,0 km/h (0 Bft) 97,87 %
31.08.2020 07:48 13,8 C 12,8 C 12,8 C 100 % 1017,5 hPa 0,0 l/m 0 min 0 min 21 W/m 6,4 km/h (2 Bft) 95,74 %
31.08.2020 07:50 13,8 C 12,8 C 12,8 C 100 % 1017,5 hPa 0,0 l/m 0 min 0 min 23 W/m 3,2 km/h (1 Bft) 97,87 %
31.08.2020 07:52 13,8 C 12,8 C 12,8 C 100 % 1017,6 hPa 0,0 l/m 0 min 0 min 24 W/m 3,2 km/h (1 Bft) 95,65 %
31.08.2020 07:54 13,8 C 13,3 C 12,8 C 100 % 1017,6 hPa 0,0 l/m 0 min 0 min 25 W/m 0,0 km/h (0 Bft) 97,87 %
31.08.2020 07:56 13,8 C 12,8 C 12,8 C 100 % 1017,6 hPa 0,0 l/m 0 min 0 min 26 W/m 6,4 km/h (2 Bft) 97,87 %
31.08.2020 07:58 13,8 C 12,8 C 12,8 C 100 % 1017,6 hPa 0,0 l/m 0 min 0 min 26 W/m 3,2 km/h (1 Bft) 97,87 %
31.08.2020 08:00 13,9 C 13,3 C 12,8 C 100 % 1017,7 hPa 0,0 l/m 0 min 0 min 27 W/m 0,0 km/h (0 Bft) 97,87 %
31.08.2020 08:02 13,9 C 13,3 C 12,8 C 100 % 1017,7 hPa 0,0 l/m 0 min 0 min 28 W/m 0,0 km/h (0 Bft) 95,74 %
31.08.2020 08:04 13,9 C 13,3 C 12,8 C 100 % 1017,7 hPa 0,0 l/m 0 min 0 min 29 W/m 0,0 km/h (0 Bft) 95,74 %
31.08.2020 08:06 13,9 C 13,3 C 12,8 C 100 % 1017,8 hPa 0,0 l/m 0 min 0 min 30 W/m 6,4 km/h (2 Bft) 97,87 %
31.08.2020 08:08 13,9 C 13,3 C 13,3 C 100 % 1017,8 hPa 0,0 l/m 0 min 0 min 32 W/m 0,0 km/h (0 Bft) 95,74 %
31.08.2020 08:10 13,9 C 13,3 C 12,8 C 100 % 1017,8 hPa 0,0 l/m 0 min 0 min 37 W/m 0,0 km/h (0 Bft) 97,87 %
31.08.2020 08:12 13,9 C 13,3 C 13,3 C 100 % 1017,8 hPa 0,0 l/m 0 min 0 min 41 W/m 9,7 km/h (2 Bft) 93,62 %
31.08.2020 08:14 13,9 C 13,3 C 13,3 C 100 % 1017,8 hPa 0,0 l/m 0 min 0 min 43 W/m 6,4 km/h (2 Bft) 97,83 %
31.08.2020 08:16 13,9 C 13,3 C 13,3 C 100 % 1017,8 hPa 0,0 l/m 0 min 0 min 43 W/m 0,0 km/h (0 Bft) 95,83 %
31.08.2020 08:18 13,9 C 13,3 C 12,8 C 100 % 1017,8 hPa 0,0 l/m 0 min 0 min 46 W/m 0,0 km/h (0 Bft) 97,87 %
31.08.2020 08:20 13,9 C 13,3 C 13,3 C 100 % 1017,9 hPa 0,0 l/m 0 min 0 min 48 W/m 0,0 km/h (0 Bft) 95,92 %
31.08.2020 08:22 13,9 C 13,3 C 13,3 C 100 % 1017,9 hPa 0,0 l/m 0 min 0 min 50 W/m 0,0 km/h (0 Bft) 95,74 %
31.08.2020 08:24 13,9 C 13,3 C 13,3 C 100 % 1017,9 hPa 0,0 l/m 0 min 0 min 52 W/m 3,2 km/h (1 Bft) 95,74 %
31.08.2020 08:26 13,9 C 13,3 C 13,3 C 100 % 1017,9 hPa 0,0 l/m 0 min 0 min 57 W/m 0,0 km/h (0 Bft) 94,29 %
31.08.2020 08:28 13,9 C 13,3 C 13,3 C 100 % 1017,9 hPa 0,0 l/m 0 min 0 min 58 W/m 0,0 km/h (0 Bft) 96,23 %
31.08.2020 08:30 14,0 C 13,3 C 13,3 C 100 % 1017,9 hPa 0,0 l/m 0 min 0 min 61 W/m 6,4 km/h (2 Bft) 93,75 %
31.08.2020 08:32 14,0 C 13,3 C 13,3 C 100 % 1018,0 hPa 0,0 l/m 0 min 0 min 65 W/m 3,2 km/h (1 Bft) 93,75 %
31.08.2020 08:34 14,0 C 13,3 C 13,3 C 100 % 1018,0 hPa 0,0 l/m 0 min 0 min 70 W/m 0,0 km/h (0 Bft) 95,74 %
31.08.2020 08:36 14,0 C 13,9 C 13,3 C 100 % 1018,0 hPa 0,0 l/m 0 min 0 min 76 W/m 0,0 km/h (0 Bft) 95,74 %
31.08.2020 08:38 14,1 C 13,9 C 13,3 C 100 % 1018,0 hPa 0,0 l/m 0 min 0 min 83 W/m 0,0 km/h (0 Bft) 95,65 %
31.08.2020 08:40 14,1 C 13,9 C 13,3 C 100 % 1017,9 hPa 0,0 l/m 0 min 0 min 86 W/m 0,0 km/h (0 Bft) 95,74 %
31.08.2020 08:42 14,1 C 13,9 C 13,3 C 100 % 1018,0 hPa 0,0 l/m 0 min 0 min 89 W/m 6,4 km/h (2 Bft) 97,87 %
31.08.2020 08:44 14,1 C 13,9 C 13,3 C 100 % 1018,0 hPa 0,0 l/m 0 min 0 min 92 W/m 0,0 km/h (0 Bft) 97,87 %
31.08.2020 08:46 14,1 C 13,9 C 13,3 C 100 % 1018,0 hPa 0,0 l/m 0 min 0 min 90 W/m 0,0 km/h (0 Bft) 97,37 %
31.08.2020 08:48 14,1 C 13,9 C 13,3 C 100 % 1018,1 hPa 0,0 l/m 0 min 0 min 85 W/m 6,4 km/h (2 Bft) 97,87 %
31.08.2020 08:50 14,1 C 13,9 C 13,3 C 100 % 1018,0 hPa 0,0 l/m 0 min 0 min 89 W/m 6,4 km/h (2 Bft) 95,74 %
31.08.2020 08:52 14,1 C 13,9 C 13,3 C 100 % 1018,1 hPa 0,0 l/m 0 min 0 min 79 W/m 3,2 km/h (1 Bft) 97,87 %
31.08.2020 08:54 14,1 C 13,9 C 13,3 C 100 % 1018,1 hPa 0,0 l/m 0 min 0 min 77 W/m 3,2 km/h (1 Bft) 97,87 %
31.08.2020 08:56 14,1 C 13,9 C 13,3 C 100 % 1018,1 hPa 0,0 l/m 0 min 0 min 74 W/m 0,0 km/h (0 Bft) 95,65 %
31.08.2020 08:58 14,2 C 13,9 C 13,3 C 100 % 1018,1 hPa 0,0 l/m 0 min 0 min 81 W/m 3,2 km/h (1 Bft) 95,74 %
31.08.2020 09:00 14,2 C 13,9 C 13,3 C 100 % 1018,1 hPa 0,0 l/m 0 min 0 min 79 W/m 0,0 km/h (0 Bft) 95,74 %
31.08.2020 09:02 14,2 C 13,9 C 13,3 C 100 % 1018,2 hPa 0,0 l/m 0 min 0 min 84 W/m 0,0 km/h (0 Bft) 98,11 %
31.08.2020 09:04 14,2 C 13,9 C 13,3 C 100 % 1018,2 hPa 0,0 l/m 0 min 0 min 81 W/m 3,2 km/h (1 Bft) 97,87 %
31.08.2020 09:06 14,2 C 13,9 C 13,3 C 100 % 1018,2 hPa 0,0 l/m 0 min 0 min 84 W/m 12,9 km/h (3 Bft) 95,74 %
31.08.2020 09:08 14,3 C 13,9 C 13,3 C 100 % 1018,3 hPa 0,0 l/m 0 min 0 min 90 W/m 0,0 km/h (0 Bft) 97,87 %
31.08.2020 09:10 14,3 C 13,9 C 13,3 C 100 % 1018,3 hPa 0,0 l/m 0 min 0 min 97 W/m 3,2 km/h (1 Bft) 100,00 %
31.08.2020 09:12 14,3 C 13,9 C 13,3 C 100 % 1018,3 hPa 0,0 l/m 0 min 0 min 103 W/m 6,4 km/h (2 Bft) 100,00 %
31.08.2020 09:14 14,3 C 13,9 C 13,3 C 100 % 1018,3 hPa 0,0 l/m 0 min 0 min 110 W/m 0,0 km/h (0 Bft) 100,00 %
31.08.2020 09:16 14,3 C 14,4 C 13,3 C 100 % 1018,4 hPa 0,0 l/m 0 min 0 min 109 W/m 0,0 km/h (0 Bft) 100,00 %
31.08.2020 09:18 14,3 C 13,9 C 13,3 C 100 % 1018,3 hPa 0,0 l/m 0 min 0 min 101 W/m 3,2 km/h (1 Bft) 97,87 %
31.08.2020 09:20 14,3 C 13,9 C 13,3 C 100 % 1018,4 hPa 0,0 l/m 0 min 0 min 80 W/m 12,9 km/h (3 Bft) 100,00 %
31.08.2020 09:22 14,3 C 13,9 C 13,3 C 100 % 1018,4 hPa 0,0 l/m 0 min 0 min 76 W/m 6,4 km/h (2 Bft) 100,00 %
31.08.2020 09:24 14,3 C 13,9 C 13,3 C 100 % 1018,4 hPa 0,0 l/m 0 min 0 min 72 W/m 3,2 km/h (1 Bft) 100,00 %
31.08.2020 09:26 14,3 C 13,9 C 13,3 C 100 % 1018,4 hPa 0,0 l/m 0 min 0 min 74 W/m 6,4 km/h (2 Bft) 100,00 %
31.08.2020 09:28 14,3 C 13,9 C 13,3 C 100 % 1018,4 hPa 0,0 l/m 0 min 0 min 74 W/m 16,1 km/h (3 Bft) 100,00 %
31.08.2020 09:30 14,3 C 13,9 C 13,3 C 100 % 1018,4 hPa 0,0 l/m 0 min 0 min 74 W/m 0,0 km/h (0 Bft) 97,87 %
31.08.2020 09:32 14,3 C 13,9 C 13,3 C 100 % 1018,4 hPa 0,0 l/m 0 min 0 min 70 W/m 0,0 km/h (0 Bft) 100,00 %
31.08.2020 09:34 14,3 C 13,9 C 13,3 C 100 % 1018,4 hPa 0,0 l/m 0 min 0 min 72 W/m 0,0 km/h (0 Bft) 100,00 %
31.08.2020 09:36 14,3 C 13,9 C 13,3 C 100 % 1018,5 hPa 0,0 l/m 0 min 0 min 69 W/m 0,0 km/h (0 Bft) 100,00 %
31.08.2020 09:38 14,3 C 13,9 C 13,3 C 100 % 1018,5 hPa 0,0 l/m 0 min 0 min 65 W/m 0,0 km/h (0 Bft) 97,87 %
31.08.2020 09:40 14,3 C 13,9 C 13,3 C 100 % 1018,6 hPa 0,0 l/m 0 min 0 min 70 W/m 6,4 km/h (2 Bft) 97,87 %
31.08.2020 09:42 14,3 C 13,9 C 13,3 C 100 % 1018,5 hPa 0,0 l/m 0 min 0 min 76 W/m 3,2 km/h (1 Bft) 95,74 %
31.08.2020 09:44 14,3 C 13,9 C 13,3 C 100 % 1018,6 hPa 0,0 l/m 0 min 0 min 88 W/m 3,2 km/h (1 Bft) 97,87 %
31.08.2020 09:46 14,3 C 13,9 C 13,3 C 100 % 1018,6 hPa 0,0 l/m 0 min 0 min 98 W/m 3,2 km/h (1 Bft) 97,87 %
31.08.2020 09:48 14,3 C 14,4 C 13,9 C 100 % 1018,6 hPa 0,0 l/m 0 min 0 min 108 W/m 3,2 km/h (1 Bft) 97,83 %
31.08.2020 09:50 14,3 C 14,4 C 13,9 C 100 % 1018,6 hPa 0,0 l/m 0 min 0 min 130 W/m 0,0 km/h (0 Bft) 95,74 %
31.08.2020 09:52 14,3 C 14,4 C 13,9 C 100 % 1018,7 hPa 0,0 l/m 0 min 0 min 137 W/m 3,2 km/h (1 Bft) 97,87 %
31.08.2020 09:54 14,4 C 15,0 C 13,9 C 100 % 1018,7 hPa 0,0 l/m 0 min 0 min 146 W/m 3,2 km/h (1 Bft) 97,87 %
31.08.2020 09:56 14,4 C 15,0 C 13,9 C 100 % 1018,7 hPa 0,0 l/m 0 min 0 min 129 W/m 0,0 km/h (0 Bft) 97,87 %
31.08.2020 09:58 14,5 C 15,0 C 13,9 C 100 % 1018,7 hPa 0,0 l/m 0 min 0 min 104 W/m 9,7 km/h (2 Bft) 97,87 %
31.08.2020 10:00 14,5 C 14,4 C 13,9 C 100 % 1018,7 hPa 0,0 l/m 0 min 0 min 89 W/m 6,4 km/h (2 Bft) 97,83 %
31.08.2020 10:02 14,6 C 14,4 C 13,9 C 100 % 1018,7 hPa 0,0 l/m 0 min 0 min 91 W/m 3,2 km/h (1 Bft) 95,83 %
31.08.2020 10:04 14,6 C 14,4 C 13,9 C 100 % 1018,7 hPa 0,0 l/m 0 min 0 min 102 W/m 3,2 km/h (1 Bft) 97,87 %
31.08.2020 10:06 14,6 C 14,4 C 13,9 C 100 % 1018,7 hPa 0,0 l/m 0 min 0 min 119 W/m 0,0 km/h (0 Bft) 95,74 %
31.08.2020 10:08 14,6 C 15,0 C 13,9 C 100 % 1018,8 hPa 0,0 l/m 0 min 0 min 136 W/m 0,0 km/h (0 Bft) 93,62 %
31.08.2020 10:10 14,7 C 15,0 C 13,9 C 100 % 1018,7 hPa 0,0 l/m 0 min 0 min 129 W/m 12,9 km/h (3 Bft) 97,83 %
31.08.2020 10:12 14,7 C 14,4 C 13,9 C 100 % 1018,7 hPa 0,0 l/m 0 min 0 min 122 W/m 6,4 km/h (2 Bft) 97,87 %
31.08.2020 10:14 14,7 C 14,4 C 13,9 C 100 % 1018,8 hPa 0,0 l/m 0 min 0 min 132 W/m 0,0 km/h (0 Bft) 97,87 %
31.08.2020 10:16 14,7 C 15,0 C 13,9 C 100 % 1018,8 hPa 0,0 l/m 0 min 0 min 163 W/m 3,2 km/h (1 Bft) 97,87 %
31.08.2020 10:18 14,7 C 15,0 C 13,9 C 100 % 1018,8 hPa 0,0 l/m 0 min 0 min 144 W/m 6,4 km/h (2 Bft) 100,00 %
31.08.2020 10:20 14,7 C 14,4 C 13,9 C 100 % 1018,8 hPa 0,0 l/m 0 min 0 min 129 W/m 3,2 km/h (1 Bft) 100,00 %
31.08.2020 10:22 14,7 C 14,4 C 13,9 C 100 % 1018,8 hPa 0,0 l/m 0 min 0 min 120 W/m 3,2 km/h (1 Bft) 97,83 %
31.08.2020 10:24 14,7 C 14,4 C 13,9 C 100 % 1018,8 hPa 0,0 l/m 0 min 0 min 116 W/m 6,4 km/h (2 Bft) 100,00 %
31.08.2020 10:26 14,7 C 15,0 C 13,9 C 100 % 1018,8 hPa 0,0 l/m 0 min 0 min 128 W/m 0,0 km/h (0 Bft) 100,00 %
31.08.2020 10:28 14,7 C 14,4 C 13,9 C 100 % 1018,9 hPa 0,0 l/m 0 min 0 min 107 W/m 0,0 km/h (0 Bft) 100,00 %
31.08.2020 10:30 14,7 C 14,4 C 13,9 C 100 % 1018,9 hPa 0,0 l/m 0 min 0 min 94 W/m 0,0 km/h (0 Bft) 97,87 %
31.08.2020 10:32 14,7 C 14,4 C 13,9 C 100 % 1018,9 hPa 0,0 l/m 0 min 0 min 92 W/m 0,0 km/h (0 Bft) 100,00 %
31.08.2020 10:34 14,7 C 14,4 C 13,9 C 100 % 1018,9 hPa 0,0 l/m 0 min 0 min 94 W/m 3,2 km/h (1 Bft) 100,00 %
31.08.2020 10:36 14,7 C 14,4 C 13,9 C 100 % 1018,9 hPa 0,0 l/m 0 min 0 min 100 W/m 3,2 km/h (1 Bft) 95,74 %
31.08.2020 10:38 14,7 C 14,4 C 13,9 C 100 % 1018,9 hPa 0,0 l/m 0 min 0 min 97 W/m 3,2 km/h (1 Bft) 54,35 %
31.08.2020 10:40 14,7 C 13,9 C 13,9 C 100 % 1018,9 hPa 0,0 l/m 0 min 0 min 92 W/m 12,9 km/h (3 Bft) 100,00 %
31.08.2020 10:42 14,6 C 13,9 C 13,3 C 100 % 1018,9 hPa 0,0 l/m 0 min 0 min 84 W/m 9,7 km/h (2 Bft) 97,87 %
31.08.2020 10:44 14,6 C 13,9 C 13,3 C 100 % 1018,9 hPa 0,0 l/m 0 min 0 min 91 W/m 3,2 km/h (1 Bft) 100,00 %
31.08.2020 10:46 14,6 C 14,4 C 13,3 C 100 % 1018,9 hPa 0,0 l/m 0 min 0 min 90 W/m 3,2 km/h (1 Bft) 100,00 %
31.08.2020 10:48 14,6 C 14,4 C 13,9 C 100 % 1018,9 hPa 0,0 l/m 0 min 0 min 89 W/m 0,0 km/h (0 Bft) 97,73 %
31.08.2020 10:50 14,6 C 14,4 C 13,9 C 100 % 1019,0 hPa 0,0 l/m 0 min 0 min 82 W/m 6,4 km/h (2 Bft) 100,00 %
31.08.2020 10:52 14,6 C 14,4 C 13,9 C 100 % 1019,1 hPa 0,0 l/m 0 min 0 min 87 W/m 3,2 km/h (1 Bft) 100,00 %
31.08.2020 10:54 14,6 C 14,4 C 13,9 C 100 % 1019,1 hPa 0,0 l/m 0 min 0 min 75 W/m 0,0 km/h (0 Bft) 100,00 %
31.08.2020 10:56 14,6 C 13,9 C 13,3 C 100 % 1019,1 hPa 0,0 l/m 0 min 0 min 65 W/m 0,0 km/h (0 Bft) 95,74 %
31.08.2020 10:58 14,6 C 13,9 C 13,3 C 100 % 1019,1 hPa 0,0 l/m 0 min 0 min 58 W/m 3,2 km/h (1 Bft) 97,83 %
31.08.2020 11:00 14,5 C 13,9 C 13,3 C 100 % 1019,2 hPa 0,0 l/m 0 min 0 min 59 W/m 6,4 km/h (2 Bft) 95,74 %
31.08.2020 11:02 14,4 C 13,9 C 13,3 C 100 % 1019,2 hPa 0,0 l/m 0 min 0 min 61 W/m 16,1 km/h (3 Bft) 97,92 %
31.08.2020 11:04 14,3 C 13,9 C 13,3 C 100 % 1019,2 hPa 0,0 l/m 0 min 0 min 51 W/m 3,2 km/h (1 Bft) 97,87 %
31.08.2020 11:06 14,3 C 13,3 C 13,3 C 100 % 1019,1 hPa 0,0 l/m 0 min 0 min 42 W/m 9,7 km/h (2 Bft) 95,74 %
31.08.2020 11:08 14,3 C 13,3 C 13,3 C 100 % 1019,1 hPa 0,0 l/m 0 min 0 min 45 W/m 3,2 km/h (1 Bft) 95,74 %
31.08.2020 11:10 14,3 C 13,3 C 13,3 C 100 % 1019,2 hPa 0,0 l/m 0 min 0 min 56 W/m 6,4 km/h (2 Bft) 97,83 %
31.08.2020 11:12 14,3 C 13,9 C 13,3 C 100 % 1019,2 hPa 0,0 l/m 0 min 0 min 68 W/m 6,4 km/h (2 Bft) 97,87 %
31.08.2020 11:14 14,3 C 13,9 C 13,3 C 100 % 1019,2 hPa 0,0 l/m 0 min 0 min 73 W/m 6,4 km/h (2 Bft) 97,87 %
31.08.2020 11:16 14,3 C 13,9 C 13,3 C 100 % 1019,2 hPa 0,0 l/m 0 min 0 min 75 W/m 3,2 km/h (1 Bft) 93,62 %
31.08.2020 11:18 14,3 C 13,9 C 13,3 C 100 % 1019,2 hPa 0,0 l/m 0 min 0 min 64 W/m 0,0 km/h (0 Bft) 97,87 %
31.08.2020 11:20 14,3 C 13,9 C 13,3 C 100 % 1019,3 hPa 0,0 l/m 0 min 0 min 65 W/m 6,4 km/h (2 Bft) 97,83 %
31.08.2020 11:22 14,3 C 13,9 C 13,3 C 100 % 1019,3 hPa 0,0 l/m 0 min 0 min 72 W/m 6,4 km/h (2 Bft) 97,87 %
31.08.2020 11:24 14,3 C 13,3 C 13,3 C 100 % 1019,4 hPa 0,0 l/m 0 min 0 min 74 W/m 9,7 km/h (2 Bft) 95,74 %
31.08.2020 11:26 14,2 C 13,3 C 13,3 C 100 % 1019,3 hPa 0,0 l/m 0 min 0 min 84 W/m 6,4 km/h (2 Bft) 95,74 %
31.08.2020 11:28 14,2 C 13,3 C 13,3 C 100 % 1019,3 hPa 0,0 l/m 0 min 0 min 96 W/m 12,9 km/h (3 Bft) 97,87 %
31.08.2020 11:30 14,1 C 13,9 C 13,3 C 100 % 1019,3 hPa 0,0 l/m 0 min 0 min 95 W/m 6,4 km/h (2 Bft) 93,62 %
31.08.2020 11:32 14,1 C 13,3 C 12,8 C 100 % 1019,3 hPa 0,0 l/m 0 min 0 min 83 W/m 6,4 km/h (2 Bft) 95,74 %
31.08.2020 11:34 14,1 C 13,3 C 12,8 C 100 % 1019,3 hPa 0,0 l/m 0 min 0 min 78 W/m 6,4 km/h (2 Bft) 95,74 %
31.08.2020 11:36 14,0 C 13,3 C 12,8 C 100 % 1019,3 hPa 0,0 l/m 0 min 0 min 79 W/m 6,4 km/h (2 Bft) 95,74 %
31.08.2020 11:38 14,0 C 13,3 C 12,8 C 99 % 1019,3 hPa 0,0 l/m 0 min 0 min 82 W/m 6,4 km/h (2 Bft) 91,49 %
31.08.2020 11:40 13,9 C 13,3 C 12,8 C 99 % 1019,3 hPa 0,0 l/m 0 min 0 min 85 W/m 6,4 km/h (2 Bft) 95,74 %
31.08.2020 11:42 13,9 C 13,3 C 12,8 C 99 % 1019,4 hPa 0,0 l/m 0 min 0 min 87 W/m 9,7 km/h (2 Bft) 93,62 %
31.08.2020 11:44 13,8 C 13,3 C 12,8 C 99 % 1019,5 hPa 0,0 l/m 0 min 0 min 84 W/m 12,9 km/h (3 Bft) 95,65 %
31.08.2020 11:46 13,8 C 13,3 C 12,8 C 99 % 1019,5 hPa 0,0 l/m 0 min 0 min 88 W/m 9,7 km/h (2 Bft) 95,74 %
31.08.2020 11:48 13,8 C 13,3 C 12,8 C 99 % 1019,5 hPa 0,0 l/m 0 min 0 min 92 W/m 6,4 km/h (2 Bft) 97,87 %
31.08.2020 11:50 13,8 C 13,3 C 12,8 C 99 % 1019,5 hPa 0,0 l/m 0 min 0 min 100 W/m 9,7 km/h (2 Bft) 97,87 %
31.08.2020 11:52 13,8 C 13,3 C 12,8 C 99 % 1019,5 hPa 0,0 l/m 0 min 0 min 122 W/m 6,4 km/h (2 Bft) 95,74 %
31.08.2020 11:54 13,8 C 13,9 C 13,3 C 99 % 1019,5 hPa 0,0 l/m 0 min 0 min 139 W/m 6,4 km/h (2 Bft) 93,62 %
31.08.2020 11:56 13,8 C 13,9 C 13,3 C 99 % 1019,4 hPa 0,0 l/m 0 min 0 min 148 W/m 6,4 km/h (2 Bft) 97,83 %
31.08.2020 11:58 13,8 C 13,9 C 13,3 C 99 % 1019,5 hPa 0,0 l/m 0 min 0 min 146 W/m 6,4 km/h (2 Bft) 97,87 %
31.08.2020 12:00 13,8 C 13,9 C 13,3 C 99 % 1019,5 hPa 0,0 l/m 0 min 0 min 144 W/m 6,4 km/h (2 Bft) 97,87 %
31.08.2020 12:02 13,9 C 14,4 C 13,3 C 99 % 1019,5 hPa 0,0 l/m 0 min 0 min 152 W/m 0,0 km/h (0 Bft) 95,83 %
31.08.2020 12:04 13,9 C 14,4 C 13,3 C 99 % 1019,5 hPa 0,0 l/m 0 min 0 min 155 W/m 9,7 km/h (2 Bft) 95,74 %
31.08.2020 12:08 14,0 C 14,4 C 13,3 C 99 % 1019,5 hPa 0,0 l/m 0 min 0 min 160 W/m 6,4 km/h (2 Bft) 95,83 %
31.08.2020 12:10 14,1 C 14,4 C 13,3 C 99 % 1019,5 hPa 0,0 l/m 0 min 0 min 156 W/m 12,9 km/h (3 Bft) 95,74 %
31.08.2020 12:12 14,1 C 14,4 C 13,3 C 99 % 1019,5 hPa 0,0 l/m 0 min 0 min 167 W/m 0,0 km/h (0 Bft) 95,65 %
31.08.2020 12:14 14,1 C 14,4 C 13,3 C 99 % 1019,5 hPa 0,0 l/m 0 min 0 min 181 W/m 12,9 km/h (3 Bft) 97,87 %
31.08.2020 12:16 14,2 C 14,4 C 13,3 C 99 % 1019,5 hPa 0,0 l/m 0 min 0 min 184 W/m 12,9 km/h (3 Bft) 97,87 %
31.08.2020 12:18 14,3 C 15,0 C 13,9 C 99 % 1019,6 hPa 0,0 l/m 0 min 0 min 173 W/m 3,2 km/h (1 Bft) 97,87 %
31.08.2020 12:20 14,3 C 15,0 C 13,9 C 99 % 1019,6 hPa 0,0 l/m 0 min 0 min 168 W/m 3,2 km/h (1 Bft) 97,87 %
31.08.2020 12:22 14,3 C 15,0 C 13,9 C 99 % 1019,6 hPa 0,0 l/m 0 min 0 min 179 W/m 6,4 km/h (2 Bft) 97,83 %
31.08.2020 12:24 14,3 C 15,0 C 13,9 C 99 % 1019,6 hPa 0,0 l/m 0 min 0 min 184 W/m 6,4 km/h (2 Bft) 97,87 %
31.08.2020 12:26 14,3 C 15,0 C 13,3 C 99 % 1019,6 hPa 0,0 l/m 0 min 0 min 167 W/m 9,7 km/h (2 Bft) 93,62 %
31.08.2020 12:28 14,3 C 15,0 C 13,3 C 99 % 1019,7 hPa 0,0 l/m 0 min 0 min 149 W/m 9,7 km/h (2 Bft) 97,87 %
31.08.2020 12:30 14,3 C 15,0 C 13,3 C 99 % 1019,7 hPa 0,0 l/m 0 min 0 min 159 W/m 6,4 km/h (2 Bft) 97,87 %
31.08.2020 12:32 14,3 C 15,0 C 13,3 C 98 % 1019,7 hPa 0,0 l/m 0 min 0 min 175 W/m 6,4 km/h (2 Bft) 97,87 %
31.08.2020 12:34 14,3 C 15,6 C 13,3 C 98 % 1019,7 hPa 0,0 l/m 0 min 0 min 181 W/m 12,9 km/h (3 Bft) 97,83 %
31.08.2020 12:36 14,3 C 15,6 C 13,9 C 98 % 1019,7 hPa 0,0 l/m 0 min 0 min 191 W/m 6,4 km/h (2 Bft) 97,87 %
31.08.2020 12:38 14,4 C 15,6 C 13,9 C 98 % 1019,7 hPa 0,0 l/m 0 min 0 min 208 W/m 6,4 km/h (2 Bft) 97,87 %
31.08.2020 12:40 14,4 C 16,1 C 13,9 C 98 % 1019,7 hPa 0,0 l/m 0 min 0 min 219 W/m 9,7 km/h (2 Bft) 97,87 %
31.08.2020 12:42 14,4 C 16,1 C 13,9 C 98 % 1019,7 hPa 0,0 l/m 0 min 0 min 219 W/m 6,4 km/h (2 Bft) 95,74 %
31.08.2020 12:44 14,5 C 16,1 C 13,9 C 98 % 1019,7 hPa 0,0 l/m 0 min 0 min 214 W/m 6,4 km/h (2 Bft) 97,87 %
31.08.2020 12:46 14,6 C 16,7 C 13,9 C 98 % 1019,7 hPa 0,0 l/m 0 min 0 min 216 W/m 3,2 km/h (1 Bft) 97,83 %
31.08.2020 12:48 14,6 C 16,7 C 13,9 C 97 % 1019,8 hPa 0,0 l/m 0 min 0 min 237 W/m 6,4 km/h (2 Bft) 100,00 %
31.08.2020 12:50 14,7 C 17,2 C 14,4 C 97 % 1019,8 hPa 0,0 l/m 0 min 0 min 268 W/m 3,2 km/h (1 Bft) 100,00 %
31.08.2020 12:52 14,7 C 17,2 C 13,9 C 97 % 1019,8 hPa 0,0 l/m 0 min 0 min 305 W/m 12,9 km/h (3 Bft) 100,00 %
31.08.2020 12:54 14,8 C 17,2 C 14,4 C 97 % 1019,8 hPa 0,0 l/m 0 min 0 min 301 W/m 6,4 km/h (2 Bft) 97,83 %
31.08.2020 12:56 14,9 C 17,8 C 14,4 C 97 % 1019,8 hPa 0,0 l/m 0 min 0 min 259 W/m 3,2 km/h (1 Bft) 97,87 %
31.08.2020 12:58 15,0 C 17,8 C 14,4 C 97 % 1019,8 hPa 0,0 l/m 0 min 0 min 252 W/m 12,9 km/h (3 Bft) 100,00 %
31.08.2020 13:00 15,1 C 17,8 C 14,4 C 97 % 1019,8 hPa 0,0 l/m 0 min 0 min 269 W/m 3,2 km/h (1 Bft) 97,87 %
31.08.2020 13:02 15,2 C 17,8 C 14,4 C 97 % 1019,9 hPa 0,0 l/m 0 min 0 min 275 W/m 9,7 km/h (2 Bft) 97,92 %
31.08.2020 13:04 15,2 C 17,8 C 14,4 C 96 % 1019,8 hPa 0,0 l/m 0 min 0 min 257 W/m 6,4 km/h (2 Bft) 100,00 %
31.08.2020 13:06 15,3 C 17,8 C 14,4 C 96 % 1019,8 hPa 0,0 l/m 0 min 0 min 232 W/m 6,4 km/h (2 Bft) 100,00 %
31.08.2020 13:08 15,3 C 17,8 C 14,4 C 96 % 1019,9 hPa 0,0 l/m 0 min 0 min 232 W/m 3,2 km/h (1 Bft) 100,00 %
31.08.2020 13:10 15,4 C 18,3 C 15,0 C 96 % 1019,9 hPa 0,0 l/m 0 min 0 min 264 W/m 3,2 km/h (1 Bft) 97,87 %
31.08.2020 13:12 15,5 C 18,3 C 14,4 C 96 % 1019,9 hPa 0,0 l/m 0 min 0 min 275 W/m 6,4 km/h (2 Bft) 100,00 %
31.08.2020 13:14 15,6 C 18,3 C 14,4 C 95 % 1019,9 hPa 0,0 l/m 0 min 0 min 281 W/m 3,2 km/h (1 Bft) 100,00 %
31.08.2020 13:16 15,6 C 18,3 C 14,4 C 95 % 1019,9 hPa 0,0 l/m 0 min 0 min 307 W/m 6,4 km/h (2 Bft) 97,83 %
31.08.2020 13:18 15,7 C 18,9 C 15,0 C 95 % 1019,9 hPa 0,0 l/m 0 min 0 min 323 W/m 3,2 km/h (1 Bft) 100,00 %
31.08.2020 13:20 15,8 C 18,9 C 14,4 C 95 % 1019,9 hPa 0,0 l/m 0 min 0 min 297 W/m 9,7 km/h (2 Bft) 100,00 %
31.08.2020 13:22 15,8 C 18,9 C 14,4 C 94 % 1019,8 hPa 0,0 l/m 0 min 0 min 314 W/m 6,4 km/h (2 Bft) 100,00 %
31.08.2020 13:24 15,9 C 19,4 C 15,0 C 94 % 1019,8 hPa 0,0 l/m 2 min 0 min 372 W/m 6,4 km/h (2 Bft) 100,00 %
31.08.2020 13:26 16,0 C 20,0 C 15,0 C 94 % 1019,7 hPa 0,0 l/m 2 min 0 min 415 W/m 6,4 km/h (2 Bft) 100,00 %
31.08.2020 13:28 16,1 C 20,0 C 15,0 C 94 % 1019,7 hPa 0,0 l/m 2 min 0 min 468 W/m 19,3 km/h (3 Bft) 100,00 %
31.08.2020 13:30 16,2 C 20,6 C 15,0 C 93 % 1019,7 hPa 0,0 l/m 2 min 0 min 503 W/m 6,4 km/h (2 Bft) 100,00 %
31.08.2020 13:32 16,3 C 20,0 C 15,0 C 93 % 1019,8 hPa 0,0 l/m 2 min 0 min 401 W/m 12,9 km/h (3 Bft) 100,00 %
31.08.2020 13:34 16,3 C 19,4 C 15,0 C 92 % 1019,8 hPa 0,0 l/m 0 min 0 min 333 W/m 12,9 km/h (3 Bft) 100,00 %
31.08.2020 13:36 16,4 C 19,4 C 15,0 C 91 % 1019,8 hPa 0,0 l/m 0 min 0 min 337 W/m 6,4 km/h (2 Bft) 100,00 %
31.08.2020 13:38 16,5 C 19,4 C 15,0 C 90 % 1019,8 hPa 0,0 l/m 2 min 0 min 389 W/m 6,4 km/h (2 Bft) 100,00 %
31.08.2020 13:40 16,6 C 20,0 C 15,0 C 90 % 1019,8 hPa 0,0 l/m 2 min 0 min 425 W/m 6,4 km/h (2 Bft) 100,00 %
31.08.2020 13:42 16,7 C 20,6 C 15,0 C 90 % 1019,8 hPa 0,0 l/m 2 min 0 min 453 W/m 6,4 km/h (2 Bft) 97,87 %
31.08.2020 13:44 16,7 C 21,1 C 15,0 C 89 % 1019,8 hPa 0,0 l/m 2 min 0 min 487 W/m 12,9 km/h (3 Bft) 100,00 %
31.08.2020 13:46 16,8 C 21,1 C 15,6 C 89 % 1019,8 hPa 0,0 l/m 2 min 0 min 557 W/m 12,9 km/h (3 Bft) 97,87 %
31.08.2020 13:48 16,9 C 21,7 C 15,6 C 88 % 1019,8 hPa 0,0 l/m 2 min 0 min 613 W/m 9,7 km/h (2 Bft) 97,87 %
31.08.2020 13:50 17,1 C 21,7 C 15,6 C 88 % 1019,8 hPa 0,0 l/m 2 min 0 min 621 W/m 6,4 km/h (2 Bft) 95,74 %
31.08.2020 13:52 17,2 C 20,6 C 15,0 C 88 % 1019,8 hPa 0,0 l/m 2 min 0 min 386 W/m 6,4 km/h (2 Bft) 97,83 %
31.08.2020 13:54 17,2 C 20,0 C 15,0 C 87 % 1019,7 hPa 0,0 l/m 2 min 0 min 377 W/m 22,5 km/h (4 Bft) 97,87 %
31.08.2020 13:56 17,3 C 20,6 C 15,0 C 85 % 1019,7 hPa 0,0 l/m 2 min 0 min 415 W/m 9,7 km/h (2 Bft) 95,74 %
31.08.2020 13:58 17,3 C 21,1 C 15,6 C 85 % 1019,7 hPa 0,0 l/m 2 min 0 min 566 W/m 6,4 km/h (2 Bft) 97,87 %
31.08.2020 14:00 17,5 C 22,2 C 15,6 C 86 % 1019,7 hPa 0,0 l/m 2 min 0 min 539 W/m 6,4 km/h (2 Bft) 97,87 %
31.08.2020 14:02 17,6 C 22,2 C 15,6 C 86 % 1019,8 hPa 0,0 l/m 2 min 0 min 484 W/m 3,2 km/h (1 Bft) 95,74 %
31.08.2020 14:04 17,7 C 21,7 C 15,6 C 86 % 1019,8 hPa 0,0 l/m 2 min 0 min 392 W/m 3,2 km/h (1 Bft) 100,00 %
31.08.2020 14:06 17,8 C 21,1 C 15,6 C 86 % 1019,8 hPa 0,0 l/m 2 min 0 min 363 W/m 6,4 km/h (2 Bft) 97,87 %
31.08.2020 14:08 17,8 C 20,6 C 15,6 C 85 % 1019,8 hPa 0,0 l/m 2 min 0 min 382 W/m 6,4 km/h (2 Bft) 97,83 %
31.08.2020 14:10 17,9 C 20,6 C 15,6 C 83 % 1019,7 hPa 0,0 l/m 2 min 0 min 404 W/m 12,9 km/h (3 Bft) 97,87 %
31.08.2020 14:12 17,9 C 21,1 C 15,6 C 83 % 1019,7 hPa 0,0 l/m 2 min 0 min 405 W/m 6,4 km/h (2 Bft) 97,87 %
31.08.2020 14:14 17,9 C 21,1 C 15,6 C 83 % 1019,7 hPa 0,0 l/m 2 min 0 min 417 W/m 9,7 km/h (2 Bft) 95,74 %
31.08.2020 14:16 18,0 C 21,1 C 15,6 C 82 % 1019,7 hPa 0,0 l/m 2 min 0 min 492 W/m 12,9 km/h (3 Bft) 97,87 %
31.08.2020 14:18 18,1 C 21,7 C 15,6 C 82 % 1019,7 hPa 0,0 l/m 2 min 0 min 486 W/m 9,7 km/h (2 Bft) 95,74 %
31.08.2020 14:20 18,2 C 22,2 C 15,6 C 82 % 1019,7 hPa 0,0 l/m 2 min 0 min 462 W/m 3,2 km/h (1 Bft) 97,83 %
31.08.2020 14:22 18,2 C 22,2 C 15,6 C 82 % 1019,6 hPa 0,0 l/m 2 min 0 min 457 W/m 22,5 km/h (4 Bft) 93,62 %
31.08.2020 14:24 18,3 C 24,4 C 16,1 C 83 % 1019,6 hPa 0,0 l/m 2 min 0 min 459 W/m 12,9 km/h (3 Bft) 91,49 %
31.08.2020 14:26 18,5 C 26,7 C 16,1 C 84 % 1019,7 hPa 0,0 l/m 2 min 0 min 916 W/m 6,4 km/h (2 Bft) 95,74 %
31.08.2020 14:28 18,7 C 27,2 C 16,1 C 84 % 1019,7 hPa 0,0 l/m 2 min 0 min 999 W/m 6,4 km/h (2 Bft) 95,74 %
31.08.2020 14:30 18,9 C 26,7 C 16,1 C 84 % 1019,6 hPa 0,0 l/m 2 min 0 min 937 W/m 6,4 km/h (2 Bft) 95,65 %
31.08.2020 14:32 19,1 C 25,0 C 15,6 C 82 % 1019,6 hPa 0,0 l/m 2 min 0 min 723 W/m 9,7 km/h (2 Bft) 97,87 %
31.08.2020 14:34 19,2 C 26,1 C 15,6 C 81 % 1019,6 hPa 0,0 l/m 2 min 0 min 698 W/m 6,4 km/h (2 Bft) 97,87 %
31.08.2020 14:36 19,3 C 26,1 C 15,0 C 80 % 1019,6 hPa 0,0 l/m 2 min 0 min 824 W/m 9,7 km/h (2 Bft) 97,87 %
31.08.2020 14:38 19,4 C 26,1 C 15,0 C 79 % 1019,5 hPa 0,0 l/m 2 min 0 min 821 W/m 9,7 km/h (2 Bft) 95,74 %
31.08.2020 14:40 19,5 C 26,1 C 15,6 C 78 % 1019,5 hPa 0,0 l/m 2 min 0 min 836 W/m 3,2 km/h (1 Bft) 95,74 %
31.08.2020 14:42 19,6 C 26,7 C 15,6 C 79 % 1019,5 hPa 0,0 l/m 2 min 0 min 836 W/m 9,7 km/h (2 Bft) 97,83 %
31.08.2020 14:44 19,8 C 27,2 C 15,6 C 79 % 1019,5 hPa 0,0 l/m 2 min 0 min 831 W/m 12,9 km/h (3 Bft) 95,74 %
31.08.2020 14:46 19,9 C 27,2 C 15,6 C 77 % 1019,6 hPa 0,0 l/m 2 min 0 min 834 W/m 12,9 km/h (3 Bft) 97,87 %
31.08.2020 14:48 20,1 C 27,2 C 15,6 C 79 % 1019,5 hPa 0,0 l/m 2 min 0 min 847 W/m 6,4 km/h (2 Bft) 97,87 %
31.08.2020 14:50 20,2 C 26,7 C 16,1 C 76 % 1019,5 hPa 0,0 l/m 2 min 0 min 809 W/m 9,7 km/h (2 Bft) 95,74 %
31.08.2020 14:52 20,2 C 26,1 C 16,1 C 76 % 1019,5 hPa 0,0 l/m 2 min 0 min 793 W/m 19,3 km/h (3 Bft) 97,73 %
31.08.2020 14:54 20,3 C 26,7 C 16,7 C 76 % 1019,5 hPa 0,0 l/m 2 min 0 min 791 W/m 6,4 km/h (2 Bft) 97,87 %
31.08.2020 14:56 20,4 C 26,7 C 16,7 C 75 % 1019,5 hPa 0,0 l/m 2 min 0 min 798 W/m 6,4 km/h (2 Bft) 95,74 %
31.08.2020 14:58 20,6 C 26,7 C 16,7 C 76 % 1019,5 hPa 0,0 l/m 2 min 0 min 790 W/m 9,7 km/h (2 Bft) 97,87 %
31.08.2020 15:00 20,6 C 26,7 C 16,7 C 74 % 1019,4 hPa 0,0 l/m 2 min 0 min 777 W/m 6,4 km/h (2 Bft) 95,74 %
31.08.2020 15:02 20,7 C 26,1 C 16,7 C 75 % 1019,4 hPa 0,0 l/m 2 min 0 min 775 W/m 3,2 km/h (1 Bft) 97,87 %
31.08.2020 15:04 20,7 C 26,1 C 16,7 C 73 % 1019,3 hPa 0,0 l/m 2 min 0 min 776 W/m 22,5 km/h (4 Bft) 97,87 %
31.08.2020 15:06 20,8 C 26,7 C 16,7 C 74 % 1019,4 hPa 0,0 l/m 2 min 0 min 786 W/m 6,4 km/h (2 Bft) 97,87 %
31.08.2020 15:08 20,9 C 26,7 C 16,7 C 74 % 1019,4 hPa 0,0 l/m 2 min 0 min 789 W/m 9,7 km/h (2 Bft) 95,74 %
31.08.2020 15:10 20,9 C 25,6 C 16,7 C 73 % 1019,4 hPa 0,0 l/m 2 min 0 min 773 W/m 6,4 km/h (2 Bft) 97,87 %
31.08.2020 15:12 20,9 C 25,0 C 16,7 C 73 % 1019,5 hPa 0,0 l/m 0 min 0 min 303 W/m 3,2 km/h (1 Bft) 97,87 %
31.08.2020 15:14 21,1 C 26,7 C 16,7 C 74 % 1019,4 hPa 0,0 l/m 2 min 0 min 792 W/m 3,2 km/h (1 Bft) 97,83 %
31.08.2020 15:16 21,1 C 27,2 C 16,7 C 74 % 1019,5 hPa 0,0 l/m 2 min 0 min 792 W/m 6,4 km/h (2 Bft) 97,87 %
31.08.2020 15:18 21,1 C 26,7 C 16,7 C 71 % 1019,5 hPa 0,0 l/m 2 min 0 min 785 W/m 12,9 km/h (3 Bft) 97,87 %
31.08.2020 15:20 21,2 C 27,2 C 17,2 C 73 % 1019,5 hPa 0,0 l/m 2 min 0 min 794 W/m 6,4 km/h (2 Bft) 97,87 %
31.08.2020 15:22 21,2 C 27,8 C 17,2 C 72 % 1019,4 hPa 0,0 l/m 2 min 0 min 801 W/m 3,2 km/h (1 Bft) 97,87 %
31.08.2020 15:24 21,3 C 27,8 C 17,2 C 74 % 1019,5 hPa 0,0 l/m 2 min 0 min 776 W/m 3,2 km/h (1 Bft) 95,65 %
31.08.2020 15:26 21,4 C 27,2 C 17,2 C 73 % 1019,5 hPa 0,0 l/m 2 min 0 min 755 W/m 22,5 km/h (4 Bft) 97,87 %
31.08.2020 15:28 21,5 C 27,2 C 17,2 C 70 % 1019,4 hPa 0,0 l/m 2 min 0 min 758 W/m 6,4 km/h (2 Bft) 97,87 %
31.08.2020 15:30 21,5 C 27,2 C 17,2 C 71 % 1019,4 hPa 0,0 l/m 2 min 0 min 725 W/m 9,7 km/h (2 Bft) 97,87 %
31.08.2020 15:32 21,6 C 27,2 C 17,2 C 70 % 1019,3 hPa 0,0 l/m 2 min 0 min 749 W/m 12,9 km/h (3 Bft) 97,92 %
31.08.2020 15:34 21,6 C 27,2 C 17,2 C 70 % 1019,3 hPa 0,0 l/m 2 min 0 min 768 W/m 9,7 km/h (2 Bft) 97,87 %
31.08.2020 15:36 21,6 C 26,7 C 17,2 C 69 % 1019,4 hPa 0,0 l/m 2 min 0 min 733 W/m 12,9 km/h (3 Bft) 97,83 %
31.08.2020 15:38 21,6 C 26,7 C 17,8 C 68 % 1019,4 hPa 0,0 l/m 2 min 0 min 754 W/m 6,4 km/h (2 Bft) 97,87 %
31.08.2020 15:40 21,7 C 27,2 C 17,8 C 72 % 1019,4 hPa 0,0 l/m 2 min 0 min 742 W/m 6,4 km/h (2 Bft) 97,87 %
31.08.2020 15:42 21,7 C 26,7 C 17,8 C 69 % 1019,4 hPa 0,0 l/m 2 min 0 min 772 W/m 12,9 km/h (3 Bft) 97,87 %
31.08.2020 15:44 21,7 C 26,7 C 17,8 C 67 % 1019,3 hPa 0,0 l/m 2 min 0 min 763 W/m 12,9 km/h (3 Bft) 95,74 %
31.08.2020 15:46 21,7 C 27,2 C 17,8 C 69 % 1019,3 hPa 0,0 l/m 2 min 0 min 769 W/m 6,4 km/h (2 Bft) 95,74 %
31.08.2020 15:48 21,8 C 26,1 C 18,3 C 67 % 1019,3 hPa 0,0 l/m 2 min 0 min 758 W/m 12,9 km/h (3 Bft) 97,83 %
31.08.2020 15:50 21,7 C 26,1 C 18,3 C 67 % 1019,3 hPa 0,0 l/m 2 min 0 min 745 W/m 12,9 km/h (3 Bft) 97,87 %
31.08.2020 15:52 21,8 C 27,2 C 17,8 C 69 % 1019,3 hPa 0,0 l/m 2 min 0 min 754 W/m 6,4 km/h (2 Bft) 97,87 %
31.08.2020 15:54 21,8 C 26,7 C 17,8 C 67 % 1019,3 hPa 0,0 l/m 2 min 0 min 778 W/m 9,7 km/h (2 Bft) 97,87 %
31.08.2020 15:56 21,7 C 24,4 C 17,8 C 65 % 1019,3 hPa 0,0 l/m 2 min 0 min 487 W/m 12,9 km/h (3 Bft) 100,00 %
31.08.2020 15:58 21,7 C 23,9 C 17,2 C 67 % 1019,3 hPa 0,0 l/m 2 min 0 min 392 W/m 9,7 km/h (2 Bft) 100,00 %
31.08.2020 16:00 21,6 C 25,0 C 17,2 C 68 % 1019,2 hPa 0,0 l/m 2 min 0 min 559 W/m 6,4 km/h (2 Bft) 97,83 %
31.08.2020 16:02 21,6 C 24,4 C 17,8 C 67 % 1019,2 hPa 0,0 l/m 2 min 0 min 695 W/m 12,9 km/h (3 Bft) 100,00 %
31.08.2020 16:04 21,5 C 22,8 C 17,2 C 67 % 1019,3 hPa 0,0 l/m 2 min 0 min 351 W/m 9,7 km/h (2 Bft) 100,00 %
31.08.2020 16:06 21,4 C 23,3 C 17,2 C 66 % 1019,2 hPa 0,0 l/m 2 min 0 min 401 W/m 12,9 km/h (3 Bft) 100,00 %
31.08.2020 16:08 21,4 C 25,0 C 17,2 C 67 % 1019,3 hPa 0,0 l/m 2 min 0 min 667 W/m 9,7 km/h (2 Bft) 100,00 %
31.08.2020 16:10 21,4 C 25,6 C 17,8 C 68 % 1019,2 hPa 0,0 l/m 2 min 0 min 735 W/m 19,3 km/h (3 Bft) 100,00 %
31.08.2020 16:12 21,4 C 26,1 C 18,3 C 67 % 1019,2 hPa 0,0 l/m 2 min 0 min 778 W/m 9,7 km/h (2 Bft) 100,00 %
31.08.2020 16:14 21,4 C 23,9 C 17,8 C 66 % 1019,2 hPa 0,0 l/m 2 min 0 min 456 W/m 12,9 km/h (3 Bft) 100,00 %
31.08.2020 16:16 21,3 C 25,0 C 17,8 C 67 % 1019,2 hPa 0,0 l/m 2 min 0 min 445 W/m 9,7 km/h (2 Bft) 100,00 %
31.08.2020 16:18 21,4 C 26,1 C 17,8 C 69 % 1019,2 hPa 0,0 l/m 2 min 0 min 769 W/m 9,7 km/h (2 Bft) 100,00 %
31.08.2020 16:20 21,3 C 25,0 C 17,8 C 66 % 1019,2 hPa 0,0 l/m 2 min 0 min 683 W/m 9,7 km/h (2 Bft) 100,00 %
31.08.2020 16:22 21,3 C 25,6 C 17,8 C 66 % 1019,2 hPa 0,0 l/m 2 min 0 min 589 W/m 9,7 km/h (2 Bft) 97,87 %
31.08.2020 16:24 21,4 C 26,1 C 18,3 C 68 % 1019,2 hPa 0,0 l/m 2 min 0 min 733 W/m 12,9 km/h (3 Bft) 97,87 %
31.08.2020 16:26 21,4 C 26,1 C 18,3 C 69 % 1019,1 hPa 0,0 l/m 2 min 0 min 702 W/m 6,4 km/h (2 Bft) 97,87 %
31.08.2020 16:28 21,5 C 26,1 C 18,3 C 69 % 1019,1 hPa 0,0 l/m 2 min 0 min 687 W/m 6,4 km/h (2 Bft) 97,83 %
31.08.2020 16:30 21,6 C 26,7 C 18,3 C 71 % 1019,2 hPa 0,0 l/m 2 min 0 min 736 W/m 3,2 km/h (1 Bft) 97,87 %
31.08.2020 16:32 21,7 C 26,1 C 18,9 C 70 % 1019,2 hPa 0,0 l/m 2 min 0 min 770 W/m 6,4 km/h (2 Bft) 97,87 %
31.08.2020 16:34 21,7 C 24,4 C 18,3 C 69 % 1019,1 hPa 0,0 l/m 2 min 0 min 562 W/m 6,4 km/h (2 Bft) 97,87 %
31.08.2020 16:36 21,7 C 23,3 C 18,3 C 68 % 1019,2 hPa 0,0 l/m 0 min 0 min 214 W/m 6,4 km/h (2 Bft) 97,87 %
31.08.2020 16:38 21,7 C 23,9 C 18,3 C 68 % 1019,2 hPa 0,0 l/m 0 min 0 min 214 W/m 6,4 km/h (2 Bft) 100,00 %
31.08.2020 16:40 21,6 C 23,9 C 18,3 C 67 % 1019,2 hPa 0,0 l/m 2 min 0 min 396 W/m 16,1 km/h (3 Bft) 97,83 %
31.08.2020 16:42 21,6 C 23,3 C 18,3 C 67 % 1019,2 hPa 0,0 l/m 2 min 0 min 650 W/m 6,4 km/h (2 Bft) 95,74 %
31.08.2020 16:44 21,6 C 23,3 C 18,3 C 67 % 1019,2 hPa 0,0 l/m 2 min 0 min 409 W/m 6,4 km/h (2 Bft) 95,74 %
31.08.2020 16:46 21,6 C 22,8 C 18,3 C 68 % 1019,2 hPa 0,0 l/m 2 min 0 min 396 W/m 9,7 km/h (2 Bft) 93,62 %
31.08.2020 16:48 21,5 C 22,2 C 18,3 C 67 % 1019,2 hPa 0,0 l/m 2 min 0 min 322 W/m 6,4 km/h (2 Bft) 95,74 %
31.08.2020 16:50 21,4 C 22,2 C 17,8 C 67 % 1019,2 hPa 0,0 l/m 2 min 0 min 355 W/m 6,4 km/h (2 Bft) 95,65 %
31.08.2020 16:52 21,3 C 22,2 C 17,8 C 66 % 1019,3 hPa 0,0 l/m 2 min 0 min 415 W/m 16,1 km/h (3 Bft) 95,74 %
31.08.2020 16:54 21,3 C 21,7 C 17,8 C 68 % 1019,3 hPa 0,0 l/m 2 min 0 min 429 W/m 9,7 km/h (2 Bft) 95,74 %
31.08.2020 16:56 21,2 C 23,3 C 18,3 C 68 % 1019,2 hPa 0,0 l/m 2 min 0 min 346 W/m 9,7 km/h (2 Bft) 95,74 %
31.08.2020 16:58 21,2 C 25,0 C 18,9 C 68 % 1019,2 hPa 0,0 l/m 2 min 0 min 608 W/m 9,7 km/h (2 Bft) 91,49 %
31.08.2020 17:00 21,2 C 25,0 C 19,4 C 68 % 1019,2 hPa 0,0 l/m 2 min 0 min 652 W/m 9,7 km/h (2 Bft) 95,74 %
31.08.2020 17:02 21,2 C 24,4 C 20,0 C 67 % 1019,2 hPa 0,0 l/m 2 min 0 min 647 W/m 12,9 km/h (3 Bft) 97,14 %
31.08.2020 17:04 21,3 C 26,1 C 21,7 C 68 % 1019,2 hPa 0,0 l/m 2 min 0 min 636 W/m 3,2 km/h (1 Bft) 95,74 %
31.08.2020 17:06 21,4 C 25,6 C 21,7 C 68 % 1019,2 hPa 0,0 l/m 2 min 0 min 610 W/m 16,1 km/h (3 Bft) 94,83 %
31.08.2020 17:08 21,4 C 25,0 C 21,7 C 67 % 1019,2 hPa 0,0 l/m 2 min 0 min 622 W/m 9,7 km/h (2 Bft) 95,74 %
31.08.2020 17:10 21,4 C 23,3 C 20,6 C 68 % 1019,3 hPa 0,0 l/m 2 min 0 min 407 W/m 6,4 km/h (2 Bft) 97,14 %
31.08.2020 17:12 21,4 C 21,7 C 19,4 C 68 % 1019,2 hPa 0,0 l/m 0 min 0 min 170 W/m 9,7 km/h (2 Bft) 93,62 %
31.08.2020 17:14 21,3 C 20,6 C 18,3 C 66 % 1019,2 hPa 0,0 l/m 0 min 0 min 188 W/m 12,9 km/h (3 Bft) 95,74 %
31.08.2020 17:16 21,3 C 20,0 C 17,8 C 65 % 1019,2 hPa 0,0 l/m 0 min 0 min 182 W/m 9,7 km/h (2 Bft) 95,74 %
31.08.2020 17:18 21,2 C 21,1 C 17,8 C 67 % 1019,3 hPa 0,0 l/m 0 min 0 min 174 W/m 9,7 km/h (2 Bft) 97,83 %
31.08.2020 17:20 21,2 C 22,2 C 17,8 C 68 % 1019,2 hPa 0,0 l/m 2 min 0 min 419 W/m 6,4 km/h (2 Bft) 97,87 %
31.08.2020 17:22 21,1 C 21,1 C 17,2 C 68 % 1019,2 hPa 0,0 l/m 2 min 0 min 352 W/m 6,4 km/h (2 Bft) 97,87 %
31.08.2020 17:24 21,1 C 22,8 C 17,8 C 67 % 1019,2 hPa 0,0 l/m 2 min 0 min 250 W/m 9,7 km/h (2 Bft) 95,74 %
31.08.2020 17:26 21,0 C 22,8 C 17,8 C 66 % 1019,2 hPa 0,0 l/m 2 min 0 min 556 W/m 16,1 km/h (3 Bft) 95,74 %
31.08.2020 17:28 20,9 C 23,3 C 17,8 C 67 % 1019,2 hPa 0,0 l/m 2 min 0 min 553 W/m 9,7 km/h (2 Bft) 100,00 %
31.08.2020 17:30 21,0 C 24,4 C 17,8 C 68 % 1019,2 hPa 0,0 l/m 2 min 0 min 541 W/m 6,4 km/h (2 Bft) 100,00 %
31.08.2020 17:32 21,1 C 23,9 C 17,8 C 68 % 1019,1 hPa 0,0 l/m 2 min 0 min 467 W/m 6,4 km/h (2 Bft) 98,15 %
31.08.2020 17:34 21,1 C 23,9 C 17,2 C 68 % 1019,1 hPa 0,0 l/m 2 min 0 min 403 W/m 3,2 km/h (1 Bft) 100,00 %
31.08.2020 17:36 21,1 C 23,3 C 17,2 C 68 % 1019,1 hPa 0,0 l/m 2 min 0 min 376 W/m 6,4 km/h (2 Bft) 100,00 %
31.08.2020 17:38 21,1 C 23,9 C 17,2 C 67 % 1019,1 hPa 0,0 l/m 2 min 0 min 332 W/m 9,7 km/h (2 Bft) 97,87 %
31.08.2020 17:40 21,1 C 22,8 C 17,2 C 66 % 1019,1 hPa 0,0 l/m 2 min 0 min 542 W/m 12,9 km/h (3 Bft) 97,87 %
31.08.2020 17:42 21,1 C 23,9 C 17,2 C 65 % 1019,1 hPa 0,0 l/m 2 min 0 min 530 W/m 12,9 km/h (3 Bft) 100,00 %
31.08.2020 17:44 21,2 C 23,9 C 17,2 C 67 % 1019,1 hPa 0,0 l/m 2 min 0 min 478 W/m 9,7 km/h (2 Bft) 100,00 %
31.08.2020 17:46 21,2 C 23,9 C 17,2 C 65 % 1019,1 hPa 0,0 l/m 2 min 0 min 509 W/m 12,9 km/h (3 Bft) 100,00 %
31.08.2020 17:48 21,2 C 23,9 C 17,2 C 67 % 1019,1 hPa 0,0 l/m 2 min 0 min 509 W/m 6,4 km/h (2 Bft) 97,87 %
31.08.2020 17:50 21,3 C 23,3 C 17,2 C 67 % 1019,1 hPa 0,0 l/m 2 min 0 min 459 W/m 9,7 km/h (2 Bft) 100,00 %
31.08.2020 17:52 21,3 C 23,3 C 17,2 C 67 % 1019,0 hPa 0,0 l/m 2 min 0 min 436 W/m 9,7 km/h (2 Bft) 97,87 %
31.08.2020 17:54 21,3 C 22,8 C 17,2 C 66 % 1019,1 hPa 0,0 l/m 2 min 0 min 315 W/m 6,4 km/h (2 Bft) 100,00 %
31.08.2020 17:56 21,3 C 22,8 C 17,2 C 66 % 1019,1 hPa 0,0 l/m 2 min 0 min 431 W/m 6,4 km/h (2 Bft) 98,04 %
31.08.2020 17:58 21,2 C 22,2 C 17,2 C 65 % 1019,1 hPa 0,0 l/m 2 min 0 min 424 W/m 6,4 km/h (2 Bft) 100,00 %
31.08.2020 18:00 21,2 C 22,8 C 17,2 C 66 % 1019,1 hPa 0,0 l/m 2 min 0 min 404 W/m 3,2 km/h (1 Bft) 100,00 %
31.08.2020 18:02 21,1 C 21,1 C 16,7 C 65 % 1019,1 hPa 0,0 l/m 2 min 0 min 306 W/m 9,7 km/h (2 Bft) 100,00 %
31.08.2020 18:04 21,1 C 20,0 C 16,7 C 65 % 1019,1 hPa 0,0 l/m 0 min 0 min 164 W/m 9,7 km/h (2 Bft) 97,87 %
31.08.2020 18:07 20,9 C 20,0 C 16,7 C 66 % 1019,2 hPa 0,0 l/m 0 min 0 min 118 W/m 3,2 km/h (1 Bft) 97,87 %
31.08.2020 18:09 20,8 C 19,4 C 16,7 C 66 % 1019,1 hPa 0,0 l/m 0 min 0 min 126 W/m 3,2 km/h (1 Bft) 98,41 %
31.08.2020 18:10 20,8 C 19,4 C 16,7 C 66 % 1019,1 hPa 0,0 l/m 0 min 0 min 103 W/m 3,2 km/h (1 Bft) 92,86 %
31.08.2020 18:12 20,7 C 18,9 C 16,7 C 66 % 1019,2 hPa 0,0 l/m 0 min 0 min 102 W/m 6,4 km/h (2 Bft) 97,87 %
31.08.2020 18:14 20,6 C 18,9 C 16,7 C 66 % 1019,1 hPa 0,0 l/m 0 min 0 min 100 W/m 6,4 km/h (2 Bft) 100,00 %
31.08.2020 18:16 20,5 C 18,3 C 16,7 C 66 % 1019,2 hPa 0,0 l/m 0 min 0 min 94 W/m 9,7 km/h (2 Bft) 100,00 %
31.08.2020 18:18 20,4 C 18,3 C 16,1 C 66 % 1019,2 hPa 0,0 l/m 0 min 0 min 89 W/m 3,2 km/h (1 Bft) 100,00 %
31.08.2020 18:20 20,3 C 18,3 C 16,1 C 66 % 1019,2 hPa 0,0 l/m 0 min 0 min 87 W/m 3,2 km/h (1 Bft) 100,00 %
31.08.2020 18:22 20,2 C 18,3 C 16,1 C 66 % 1019,3 hPa 0,0 l/m 0 min 0 min 88 W/m 6,4 km/h (2 Bft) 93,62 %
31.08.2020 18:24 20,1 C 18,3 C 16,1 C 67 % 1019,3 hPa 0,0 l/m 0 min 0 min 87 W/m 3,2 km/h (1 Bft) 97,87 %
31.08.2020 18:26 20,0 C 18,3 C 16,1 C 68 % 1019,3 hPa 0,0 l/m 0 min 0 min 84 W/m 0,0 km/h (0 Bft) 97,87 %
31.08.2020 18:28 19,9 C 18,3 C 16,1 C 67 % 1019,3 hPa 0,0 l/m 0 min 0 min 83 W/m 6,4 km/h (2 Bft) 97,87 %
31.08.2020 18:30 19,8 C 18,3 C 16,1 C 69 % 1019,4 hPa 0,0 l/m 0 min 0 min 81 W/m 6,4 km/h (2 Bft) 97,83 %
31.08.2020 18:32 19,7 C 17,8 C 16,1 C 69 % 1019,3 hPa 0,0 l/m 0 min 0 min 83 W/m 3,2 km/h (1 Bft) 97,92 %
31.08.2020 18:34 19,6 C 17,8 C 16,1 C 69 % 1019,3 hPa 0,0 l/m 0 min 0 min 86 W/m 6,4 km/h (2 Bft) 97,87 %
31.08.2020 18:36 19,5 C 17,8 C 16,1 C 69 % 1019,3 hPa 0,0 l/m 0 min 0 min 89 W/m 12,9 km/h (3 Bft) 95,65 %
31.08.2020 18:38 19,4 C 17,8 C 16,1 C 70 % 1019,3 hPa 0,0 l/m 0 min 0 min 89 W/m 6,4 km/h (2 Bft) 97,87 %
31.08.2020 18:40 19,3 C 17,8 C 16,1 C 70 % 1019,3 hPa 0,0 l/m 0 min 0 min 87 W/m 6,4 km/h (2 Bft) 93,62 %
31.08.2020 18:42 19,3 C 17,8 C 16,1 C 71 % 1019,2 hPa 0,0 l/m 0 min 0 min 84 W/m 3,2 km/h (1 Bft) 97,87 %
31.08.2020 18:44 19,2 C 17,8 C 16,1 C 71 % 1019,3 hPa 0,0 l/m 0 min 0 min 80 W/m 9,7 km/h (2 Bft) 97,87 %
31.08.2020 18:46 19,2 C 17,8 C 16,1 C 71 % 1019,3 hPa 0,0 l/m 0 min 0 min 79 W/m 6,4 km/h (2 Bft) 97,87 %
31.08.2020 18:48 19,1 C 17,8 C 16,1 C 71 % 1019,3 hPa 0,0 l/m 0 min 0 min 77 W/m 6,4 km/h (2 Bft) 91,30 %
31.08.2020 18:50 19,0 C 17,8 C 16,1 C 71 % 1019,2 hPa 0,0 l/m 0 min 0 min 76 W/m 6,4 km/h (2 Bft) 97,87 %
31.08.2020 18:52 18,9 C 17,8 C 16,1 C 71 % 1019,3 hPa 0,0 l/m 0 min 0 min 73 W/m 6,4 km/h (2 Bft) 97,87 %
31.08.2020 18:54 18,9 C 17,8 C 16,1 C 72 % 1019,3 hPa 0,0 l/m 0 min 0 min 69 W/m 3,2 km/h (1 Bft) 100,00 %
31.08.2020 18:56 18,9 C 17,8 C 16,1 C 73 % 1019,2 hPa 0,0 l/m 0 min 0 min 63 W/m 6,4 km/h (2 Bft) 95,74 %
31.08.2020 18:58 18,8 C 17,2 C 16,1 C 72 % 1019,3 hPa 0,0 l/m 0 min 0 min 57 W/m 9,7 km/h (2 Bft) 97,87 %
31.08.2020 19:00 18,7 C 17,2 C 16,1 C 73 % 1019,2 hPa 0,0 l/m 0 min 0 min 56 W/m 6,4 km/h (2 Bft) 97,83 %
31.08.2020 19:02 18,7 C 17,2 C 16,1 C 73 % 1019,2 hPa 0,0 l/m 0 min 0 min 56 W/m 9,7 km/h (2 Bft) 97,87 %
31.08.2020 19:04 18,6 C 17,2 C 16,1 C 73 % 1019,2 hPa 0,0 l/m 0 min 0 min 56 W/m 6,4 km/h (2 Bft) 97,87 %
31.08.2020 19:06 18,6 C 17,2 C 16,1 C 74 % 1019,1 hPa 0,0 l/m 0 min 0 min 60 W/m 3,2 km/h (1 Bft) 95,74 %
31.08.2020 19:08 18,6 C 17,2 C 16,1 C 74 % 1019,1 hPa 0,0 l/m 0 min 0 min 63 W/m 3,2 km/h (1 Bft) 97,87 %
31.08.2020 19:10 18,5 C 17,2 C 16,1 C 74 % 1019,1 hPa 0,0 l/m 0 min 0 min 63 W/m 3,2 km/h (1 Bft) 97,87 %
31.08.2020 19:12 18,4 C 17,2 C 16,1 C 74 % 1019,1 hPa 0,0 l/m 0 min 0 min 62 W/m 6,4 km/h (2 Bft) 93,48 %
31.08.2020 19:14 18,4 C 17,2 C 16,1 C 74 % 1019,0 hPa 0,0 l/m 0 min 0 min 63 W/m 6,4 km/h (2 Bft) 95,74 %
31.08.2020 19:16 18,3 C 17,2 C 16,1 C 74 % 1019,1 hPa 0,0 l/m 0 min 0 min 70 W/m 6,4 km/h (2 Bft) 93,62 %
31.08.2020 19:18 18,3 C 17,2 C 16,1 C 73 % 1019,1 hPa 0,0 l/m 2 min 0 min 78 W/m 19,3 km/h (3 Bft) 95,74 %
31.08.2020 19:20 18,2 C 17,2 C 16,1 C 74 % 1019,1 hPa 0,0 l/m 2 min 0 min 76 W/m 3,2 km/h (1 Bft) 95,74 %
31.08.2020 19:22 18,2 C 17,2 C 16,1 C 74 % 1019,2 hPa 0,0 l/m 0 min 0 min 68 W/m 3,2 km/h (1 Bft) 93,62 %
31.08.2020 19:24 18,2 C 17,2 C 16,1 C 74 % 1019,2 hPa 0,0 l/m 0 min 0 min 62 W/m 6,4 km/h (2 Bft) 95,65 %
31.08.2020 19:26 18,1 C 17,2 C 16,1 C 74 % 1019,2 hPa 0,0 l/m 0 min 0 min 54 W/m 9,7 km/h (2 Bft) 95,74 %
31.08.2020 19:28 18,1 C 16,7 C 15,6 C 74 % 1019,2 hPa 0,0 l/m 0 min 0 min 44 W/m 9,7 km/h (2 Bft) 95,74 %
31.08.2020 19:30 18,1 C 16,7 C 15,6 C 75 % 1019,2 hPa 0,0 l/m 0 min 0 min 35 W/m 9,7 km/h (2 Bft) 95,74 %
31.08.2020 19:32 18,0 C 16,7 C 15,6 C 75 % 1019,3 hPa 0,0 l/m 0 min 0 min 33 W/m 9,7 km/h (2 Bft) 95,74 %
31.08.2020 19:34 18,0 C 16,7 C 15,6 C 75 % 1019,3 hPa 0,0 l/m 0 min 0 min 32 W/m 9,7 km/h (2 Bft) 97,83 %
31.08.2020 19:36 17,9 C 16,7 C 15,6 C 74 % 1019,4 hPa 0,0 l/m 0 min 0 min 32 W/m 6,4 km/h (2 Bft) 95,74 %
31.08.2020 19:38 17,8 C 16,1 C 15,6 C 74 % 1019,4 hPa 0,0 l/m 0 min 0 min 30 W/m 6,4 km/h (2 Bft) 93,62 %
31.08.2020 19:40 17,8 C 16,1 C 15,0 C 75 % 1019,4 hPa 0,0 l/m 0 min 0 min 28 W/m 6,4 km/h (2 Bft) 95,74 %
31.08.2020 19:42 17,8 C 16,1 C 15,0 C 75 % 1019,3 hPa 0,0 l/m 0 min 0 min 26 W/m 6,4 km/h (2 Bft) 95,74 %
31.08.2020 19:44 17,7 C 16,1 C 15,0 C 75 % 1019,3 hPa 0,0 l/m 0 min 0 min 28 W/m 6,4 km/h (2 Bft) 93,62 %
31.08.2020 19:46 17,7 C 16,1 C 15,0 C 75 % 1019,3 hPa 0,0 l/m 0 min 0 min 28 W/m 3,2 km/h (1 Bft) 95,65 %
31.08.2020 19:48 17,6 C 16,1 C 15,0 C 75 % 1019,4 hPa 0,0 l/m 0 min 0 min 27 W/m 6,4 km/h (2 Bft) 95,74 %
31.08.2020 19:50 17,6 C 15,6 C 15,0 C 75 % 1019,3 hPa 0,0 l/m 0 min 0 min 24 W/m 3,2 km/h (1 Bft) 95,74 %
31.08.2020 19:52 17,5 C 15,6 C 15,0 C 75 % 1019,3 hPa 0,0 l/m 0 min 0 min 21 W/m 9,7 km/h (2 Bft) 95,74 %
31.08.2020 19:54 17,5 C 15,6 C 15,0 C 76 % 1019,3 hPa 0,0 l/m 0 min 0 min 21 W/m 3,2 km/h (1 Bft) 95,74 %
31.08.2020 19:56 17,4 C 15,6 C 15,0 C 76 % 1019,3 hPa 0,0 l/m 0 min 0 min 19 W/m 6,4 km/h (2 Bft) 93,62 %
31.08.2020 19:58 17,4 C 15,6 C 15,0 C 76 % 1019,3 hPa 0,0 l/m 0 min 0 min 18 W/m 3,2 km/h (1 Bft) 95,65 %
31.08.2020 20:00 17,3 C 15,6 C 15,0 C 76 % 1019,3 hPa 0,0 l/m 0 min 0 min 17 W/m 3,2 km/h (1 Bft) 95,74 %
31.08.2020 20:02 17,3 C 15,6 C 15,0 C 76 % 1019,4 hPa 0,0 l/m 0 min 0 min 14 W/m 9,7 km/h (2 Bft) 97,87 %
31.08.2020 20:04 17,2 C 15,6 C 15,0 C 76 % 1019,4 hPa 0,0 l/m 0 min 0 min 12 W/m 9,7 km/h (2 Bft) 95,74 %
31.08.2020 20:06 17,2 C 15,6 C 15,0 C 76 % 1019,4 hPa 0,0 l/m 0 min 0 min 10 W/m 6,4 km/h (2 Bft) 97,87 %
31.08.2020 20:08 17,1 C 15,6 C 15,0 C 76 % 1019,4 hPa 0,0 l/m 0 min 0 min 9 W/m 3,2 km/h (1 Bft) 97,87 %
31.08.2020 20:10 17,1 C 15,6 C 15,0 C 76 % 1019,4 hPa 0,0 l/m 0 min 0 min 7 W/m 6,4 km/h (2 Bft) 100,00 %
31.08.2020 20:12 17,1 C 15,6 C 15,0 C 77 % 1019,5 hPa 0,0 l/m 0 min 0 min 6 W/m 3,2 km/h (1 Bft) 97,87 %
31.08.2020 20:14 17,0 C 15,6 C 15,0 C 77 % 1019,5 hPa 0,0 l/m 0 min 0 min 5 W/m 9,7 km/h (2 Bft) 97,87 %
31.08.2020 20:16 16,9 C 15,6 C 15,0 C 77 % 1019,4 hPa 0,0 l/m 0 min 0 min 1 W/m 3,2 km/h (1 Bft) 97,87 %
31.08.2020 20:18 16,9 C 15,6 C 15,0 C 77 % 1019,5 hPa 0,0 l/m 0 min 0 min 0 W/m 3,2 km/h (1 Bft) 97,87 %
31.08.2020 20:20 16,9 C 15,6 C 15,0 C 77 % 1019,5 hPa 0,0 l/m 0 min 0 min 0 W/m 3,2 km/h (1 Bft) 100,00 %
31.08.2020 20:22 16,9 C 15,6 C 15,0 C 77 % 1019,6 hPa 0,0 l/m 0 min 0 min 0 W/m 3,2 km/h (1 Bft) 93,62 %
31.08.2020 20:24 16,8 C 15,6 C 14,4 C 77 % 1019,5 hPa 0,0 l/m 0 min 0 min 0 W/m 6,4 km/h (2 Bft) 100,00 %
31.08.2020 20:26 16,8 C 15,6 C 14,4 C 77 % 1019,5 hPa 0,0 l/m 0 min 0 min 0 W/m 9,7 km/h (2 Bft) 100,00 %
31.08.2020 20:28 16,8 C 15,6 C 14,4 C 77 % 1019,5 hPa 0,0 l/m 0 min 0 min 0 W/m 9,7 km/h (2 Bft) 100,00 %
31.08.2020 20:30 16,7 C 15,6 C 14,4 C 77 % 1019,5 hPa 0,0 l/m 0 min 0 min 0 W/m 3,2 km/h (1 Bft) 95,83 %
31.08.2020 20:32 16,7 C 15,6 C 14,4 C 77 % 1019,5 hPa 0,0 l/m 0 min 0 min 0 W/m 6,4 km/h (2 Bft) 97,92 %
31.08.2020 20:34 16,7 C 15,0 C 14,4 C 78 % 1019,5 hPa 0,0 l/m 0 min 0 min 0 W/m 3,2 km/h (1 Bft) 100,00 %
31.08.2020 20:36 16,7 C 15,0 C 14,4 C 78 % 1019,6 hPa 0,0 l/m 0 min 0 min 0 W/m 3,2 km/h (1 Bft) 100,00 %
31.08.2020 20:38 16,6 C 15,0 C 14,4 C 78 % 1019,6 hPa 0,0 l/m 0 min 0 min 0 W/m 6,4 km/h (2 Bft) 100,00 %
31.08.2020 20:40 16,6 C 15,0 C 14,4 C 78 % 1019,6 hPa 0,0 l/m 0 min 0 min 0 W/m 6,4 km/h (2 Bft) 100,00 %
31.08.2020 20:42 16,6 C 15,0 C 14,4 C 78 % 1019,6 hPa 0,0 l/m 0 min 0 min 0 W/m 3,2 km/h (1 Bft) 100,00 %
31.08.2020 20:44 16,6 C 15,0 C 14,4 C 78 % 1019,6 hPa 0,0 l/m 0 min 0 min 0 W/m 6,4 km/h (2 Bft) 100,00 %
31.08.2020 20:46 16,5 C 15,0 C 14,4 C 79 % 1019,7 hPa 0,0 l/m 0 min 0 min 0 W/m 6,4 km/h (2 Bft) 97,87 %
31.08.2020 20:48 16,4 C 14,4 C 14,4 C 79 % 1019,7 hPa 0,0 l/m 0 min 0 min 0 W/m 3,2 km/h (1 Bft) 100,00 %
31.08.2020 20:50 16,4 C 14,4 C 14,4 C 79 % 1019,7 hPa 0,0 l/m 0 min 0 min 0 W/m 6,4 km/h (2 Bft) 100,00 %
31.08.2020 20:52 16,4 C 14,4 C 14,4 C 79 % 1019,7 hPa 0,0 l/m 0 min 0 min 0 W/m 3,2 km/h (1 Bft) 100,00 %
31.08.2020 20:54 16,3 C 14,4 C 14,4 C 79 % 1019,7 hPa 0,0 l/m 0 min 0 min 0 W/m 3,2 km/h (1 Bft) 100,00 %
31.08.2020 20:56 16,3 C 14,4 C 13,9 C 79 % 1019,7 hPa 0,0 l/m 0 min 0 min 0 W/m 9,7 km/h (2 Bft) 100,00 %
31.08.2020 20:58 16,3 C 14,4 C 13,9 C 79 % 1019,7 hPa 0,0 l/m 0 min 0 min 0 W/m 3,2 km/h (1 Bft) 97,96 %
31.08.2020 21:00 16,3 C 14,4 C 13,9 C 79 % 1019,7 hPa 0,0 l/m 0 min 0 min 0 W/m 3,2 km/h (1 Bft) 100,00 %
31.08.2020 21:02 16,2 C 14,4 C 13,9 C 80 % 1019,8 hPa 0,0 l/m 0 min 0 min 0 W/m 3,2 km/h (1 Bft) 100,00 %
31.08.2020 21:04 16,2 C 14,4 C 13,9 C 80 % 1019,7 hPa 0,0 l/m 0 min 0 min 0 W/m 6,4 km/h (2 Bft) 100,00 %
31.08.2020 21:06 16,1 C 14,4 C 13,9 C 80 % 1019,8 hPa 0,0 l/m 0 min 0 min 0 W/m 6,4 km/h (2 Bft) 100,00 %
31.08.2020 21:08 16,1 C 14,4 C 13,9 C 80 % 1019,7 hPa 0,0 l/m 0 min 0 min 0 W/m 9,7 km/h (2 Bft) 97,87 %
31.08.2020 21:10 16,1 C 14,4 C 13,9 C 81 % 1019,8 hPa 0,0 l/m 0 min 0 min 0 W/m 6,4 km/h (2 Bft) 100,00 %
31.08.2020 21:12 16,0 C 14,4 C 13,9 C 81 % 1019,8 hPa 0,0 l/m 0 min 0 min 0 W/m 3,2 km/h (1 Bft) 100,00 %
31.08.2020 21:14 15,9 C 14,4 C 13,9 C 81 % 1019,8 hPa 0,0 l/m 0 min 0 min 0 W/m 3,2 km/h (1 Bft) 97,92 %
31.08.2020 21:16 15,9 C 13,9 C 13,9 C 81 % 1019,8 hPa 0,0 l/m 0 min 0 min 0 W/m 0,0 km/h (0 Bft) 93,75 %
31.08.2020 21:18 15,9 C 13,9 C 13,9 C 81 % 1019,8 hPa 0,0 l/m 0 min 0 min 0 W/m 3,2 km/h (1 Bft) 97,92 %
31.08.2020 21:20 15,9 C 13,9 C 13,9 C 81 % 1019,8 hPa 0,0 l/m 0 min 0 min 0 W/m 6,4 km/h (2 Bft) 95,74 %
31.08.2020 21:22 15,8 C 13,9 C 13,9 C 81 % 1019,8 hPa 0,0 l/m 0 min 0 min 0 W/m 3,2 km/h (1 Bft) 97,92 %
31.08.2020 21:24 15,8 C 13,9 C 13,9 C 81 % 1019,7 hPa 0,0 l/m 0 min 0 min 0 W/m 3,2 km/h (1 Bft) 97,92 %
31.08.2020 21:26 15,7 C 13,9 C 13,9 C 82 % 1019,8 hPa 0,0 l/m 0 min 0 min 0 W/m 3,2 km/h (1 Bft) 95,65 %
31.08.2020 21:28 15,7 C 13,9 C 13,9 C 82 % 1019,8 hPa 0,0 l/m 0 min 0 min 0 W/m 0,0 km/h (0 Bft) 97,87 %
31.08.2020 21:30 15,7 C 13,9 C 13,9 C 82 % 1019,8 hPa 0,0 l/m 0 min 0 min 0 W/m 3,2 km/h (1 Bft) 95,74 %
31.08.2020 21:32 15,7 C 13,9 C 13,9 C 82 % 1019,8 hPa 0,0 l/m 0 min 0 min 0 W/m 3,2 km/h (1 Bft) 95,83 %
31.08.2020 21:34 15,6 C 13,9 C 13,9 C 82 % 1019,8 hPa 0,0 l/m 0 min 0 min 0 W/m 3,2 km/h (1 Bft) 95,12 %
31.08.2020 21:36 15,6 C 13,9 C 13,9 C 82 % 1019,8 hPa 0,0 l/m 0 min 0 min 0 W/m 3,2 km/h (1 Bft) 97,92 %
31.08.2020 21:38 15,6 C 13,9 C 13,9 C 82 % 1019,8 hPa 0,0 l/m 0 min 0 min 0 W/m 0,0 km/h (0 Bft) 97,92 %
31.08.2020 21:40 15,6 C 13,9 C 13,9 C 82 % 1019,8 hPa 0,0 l/m 0 min 0 min 0 W/m 6,4 km/h (2 Bft) 97,92 %
31.08.2020 21:42 15,5 C 13,9 C 13,9 C 83 % 1019,8 hPa 0,0 l/m 0 min 0 min 0 W/m 3,2 km/h (1 Bft) 97,92 %
31.08.2020 21:44 15,5 C 13,9 C 13,9 C 83 % 1019,8 hPa 0,0 l/m 0 min 0 min 0 W/m 3,2 km/h (1 Bft) 97,83 %
31.08.2020 21:46 15,4 C 13,9 C 13,9 C 83 % 1019,8 hPa 0,0 l/m 0 min 0 min 0 W/m 6,4 km/h (2 Bft) 97,92 %
31.08.2020 21:48 15,4 C 13,9 C 13,9 C 83 % 1019,9 hPa 0,0 l/m 0 min 0 min 0 W/m 9,7 km/h (2 Bft) 97,92 %
31.08.2020 21:50 15,4 C 13,9 C 13,9 C 83 % 1019,8 hPa 0,0 l/m 0 min 0 min 0 W/m 3,2 km/h (1 Bft) 97,83 %
31.08.2020 21:52 15,4 C 13,9 C 13,9 C 83 % 1019,8 hPa 0,0 l/m 0 min 0 min 0 W/m 0,0 km/h (0 Bft) 97,87 %
31.08.2020 21:54 15,3 C 13,9 C 13,9 C 83 % 1019,8 hPa 0,0 l/m 0 min 0 min 0 W/m 0,0 km/h (0 Bft) 97,87 %
31.08.2020 21:56 15,3 C 13,9 C 13,3 C 83 % 1019,9 hPa 0,0 l/m 0 min 0 min 0 W/m 0,0 km/h (0 Bft) 100,00 %
31.08.2020 21:58 15,3 C 13,9 C 13,3 C 83 % 1019,9 hPa 0,0 l/m 0 min 0 min 0 W/m 0,0 km/h (0 Bft) 100,00 %
31.08.2020 22:00 15,3 C 13,9 C 13,3 C 83 % 1019,9 hPa 0,0 l/m 0 min 0 min 0 W/m 0,0 km/h (0 Bft) 100,00 %
31.08.2020 22:02 15,2 C 13,9 C 13,3 C 83 % 1019,9 hPa 0,0 l/m 0 min 0 min 0 W/m 6,4 km/h (2 Bft) 100,00 %
31.08.2020 22:04 15,2 C 13,9 C 13,3 C 83 % 1019,9 hPa 0,0 l/m 0 min 0 min 0 W/m 3,2 km/h (1 Bft) 100,00 %
31.08.2020 22:06 15,2 C 13,9 C 13,3 C 83 % 1019,9 hPa 0,0 l/m 0 min 0 min 0 W/m 6,4 km/h (2 Bft) 100,00 %
31.08.2020 22:08 15,2 C 13,9 C 13,3 C 83 % 1019,9 hPa 0,0 l/m 0 min 0 min 0 W/m 3,2 km/h (1 Bft) 100,00 %
31.08.2020 22:10 15,2 C 13,9 C 13,3 C 83 % 1019,9 hPa 0,0 l/m 0 min 0 min 0 W/m 3,2 km/h (1 Bft) 100,00 %
31.08.2020 22:12 15,1 C 13,9 C 13,3 C 84 % 1019,9 hPa 0,0 l/m 0 min 0 min 0 W/m 3,2 km/h (1 Bft) 97,92 %
31.08.2020 22:14 15,1 C 13,9 C 13,3 C 84 % 1019,9 hPa 0,0 l/m 0 min 0 min 0 W/m 3,2 km/h (1 Bft) 100,00 %
31.08.2020 22:16 15,1 C 13,9 C 13,3 C 84 % 1019,9 hPa 0,0 l/m 0 min 0 min 0 W/m 3,2 km/h (1 Bft) 97,92 %
31.08.2020 22:18 15,1 C 13,9 C 13,3 C 84 % 1019,9 hPa 0,0 l/m 0 min 0 min 0 W/m 0,0 km/h (0 Bft) 95,74 %
31.08.2020 22:20 15,1 C 13,9 C 13,3 C 84 % 1020,0 hPa 0,0 l/m 0 min 0 min 0 W/m 3,2 km/h (1 Bft) 97,87 %
31.08.2020 22:22 15,1 C 13,9 C 13,3 C 84 % 1019,9 hPa 0,0 l/m 0 min 0 min 0 W/m 0,0 km/h (0 Bft) 97,87 %
31.08.2020 22:24 15,0 C 13,9 C 13,3 C 84 % 1019,9 hPa 0,0 l/m 0 min 0 min 0 W/m 3,2 km/h (1 Bft) 95,74 %
31.08.2020 22:26 15,0 C 13,9 C 13,3 C 84 % 1019,9 hPa 0,0 l/m 0 min 0 min 0 W/m 3,2 km/h (1 Bft) 95,65 %
31.08.2020 22:28 15,0 C 13,9 C 13,3 C 84 % 1019,9 hPa 0,0 l/m 0 min 0 min 0 W/m 0,0 km/h (0 Bft) 97,87 %
31.08.2020 22:30 14,9 C 13,9 C 13,3 C 84 % 1019,9 hPa 0,0 l/m 0 min 0 min 0 W/m 3,2 km/h (1 Bft) 97,62 %
31.08.2020 22:32 14,9 C 13,9 C 13,3 C 84 % 1019,9 hPa 0,0 l/m 0 min 0 min 0 W/m 0,0 km/h (0 Bft) 97,92 %
31.08.2020 22:34 14,9 C 13,9 C 13,3 C 84 % 1019,9 hPa 0,0 l/m 0 min 0 min 0 W/m 3,2 km/h (1 Bft) 97,92 %
31.08.2020 22:36 14,9 C 13,3 C 13,3 C 84 % 1019,9 hPa 0,0 l/m 0 min 0 min 0 W/m 3,2 km/h (1 Bft) 95,83 %
31.08.2020 22:38 14,9 C 13,3 C 13,3 C 84 % 1019,9 hPa 0,0 l/m 0 min 0 min 0 W/m 0,0 km/h (0 Bft) 97,92 %
31.08.2020 22:40 14,9 C 13,3 C 13,3 C 84 % 1019,9 hPa 0,0 l/m 0 min 0 min 0 W/m 0,0 km/h (0 Bft) 100,00 %
31.08.2020 22:42 14,8 C 13,3 C 13,3 C 84 % 1019,9 hPa 0,0 l/m 0 min 0 min 0 W/m 0,0 km/h (0 Bft) 95,74 %
31.08.2020 22:44 14,8 C 13,3 C 13,3 C 84 % 1019,8 hPa 0,0 l/m 0 min 0 min 0 W/m 0,0 km/h (0 Bft) 97,87 %
31.08.2020 22:46 14,8 C 13,3 C 13,3 C 84 % 1019,9 hPa 0,0 l/m 0 min 0 min 0 W/m 0,0 km/h (0 Bft) 97,87 %
31.08.2020 22:48 14,8 C 13,3 C 13,3 C 84 % 1019,8 hPa 0,0 l/m 0 min 0 min 0 W/m 3,2 km/h (1 Bft) 97,83 %
31.08.2020 22:50 14,8 C 13,3 C 13,3 C 84 % 1019,8 hPa 0,0 l/m 0 min 0 min 0 W/m 3,2 km/h (1 Bft) 95,74 %
31.08.2020 22:52 14,8 C 13,9 C 13,3 C 84 % 1019,8 hPa 0,0 l/m 0 min 0 min 0 W/m 6,4 km/h (2 Bft) 95,74 %
31.08.2020 22:54 14,8 C 13,9 C 13,3 C 85 % 1019,8 hPa 0,0 l/m 0 min 0 min 0 W/m 0,0 km/h (0 Bft) 97,87 %
31.08.2020 22:56 14,8 C 13,9 C 13,3 C 85 % 1019,8 hPa 0,0 l/m 0 min 0 min 0 W/m 3,2 km/h (1 Bft) 97,87 %
31.08.2020 22:58 14,7 C 13,9 C 13,3 C 85 % 1019,8 hPa 0,0 l/m 0 min 0 min 0 W/m 0,0 km/h (0 Bft) 95,35 %
31.08.2020 23:00 14,7 C 13,9 C 13,3 C 85 % 1019,8 hPa 0,0 l/m 0 min 0 min 0 W/m 6,4 km/h (2 Bft) 97,92 %
31.08.2020 23:02 14,7 C 13,9 C 13,3 C 85 % 1019,8 hPa 0,0 l/m 0 min 0 min 0 W/m 3,2 km/h (1 Bft) 97,96 %
31.08.2020 23:04 14,7 C 13,3 C 13,3 C 85 % 1019,8 hPa 0,0 l/m 0 min 0 min 0 W/m 0,0 km/h (0 Bft) 93,62 %
31.08.2020 23:06 14,7 C 13,3 C 13,3 C 85 % 1019,8 hPa 0,0 l/m 0 min 0 min 0 W/m 6,4 km/h (2 Bft) 97,87 %
31.08.2020 23:08 14,7 C 13,3 C 13,3 C 85 % 1019,8 hPa 0,0 l/m 0 min 0 min 0 W/m 3,2 km/h (1 Bft) 97,87 %
31.08.2020 23:10 14,7 C 13,3 C 13,3 C 85 % 1019,8 hPa 0,0 l/m 0 min 0 min 0 W/m 3,2 km/h (1 Bft) 97,87 %
31.08.2020 23:12 14,6 C 13,3 C 12,8 C 85 % 1019,8 hPa 0,0 l/m 0 min 0 min 0 W/m 0,0 km/h (0 Bft) 93,48 %
31.08.2020 23:14 14,6 C 13,3 C 12,8 C 85 % 1019,8 hPa 0,0 l/m 0 min 0 min 0 W/m 0,0 km/h (0 Bft) 97,87 %
31.08.2020 23:16 14,6 C 12,8 C 12,8 C 85 % 1019,8 hPa 0,0 l/m 0 min 0 min 0 W/m 0,0 km/h (0 Bft) 97,87 %
31.08.2020 23:18 14,6 C 12,8 C 12,8 C 85 % 1019,8 hPa 0,0 l/m 0 min 0 min 0 W/m 0,0 km/h (0 Bft) 93,62 %
31.08.2020 23:20 14,6 C 12,8 C 12,8 C 85 % 1019,9 hPa 0,0 l/m 0 min 0 min 0 W/m 0,0 km/h (0 Bft) 97,56 %
31.08.2020 23:22 14,6 C 12,8 C 12,8 C 85 % 1019,9 hPa 0,0 l/m 0 min 0 min 0 W/m 0,0 km/h (0 Bft) 95,83 %
31.08.2020 23:24 14,5 C 12,8 C 12,8 C 85 % 1019,9 hPa 0,0 l/m 0 min 0 min 0 W/m 0,0 km/h (0 Bft) 97,87 %
31.08.2020 23:26 14,5 C 12,8 C 12,2 C 85 % 1019,9 hPa 0,0 l/m 0 min 0 min 0 W/m 0,0 km/h (0 Bft) 95,74 %
31.08.2020 23:28 14,5 C 12,8 C 12,2 C 85 % 1019,9 hPa 0,0 l/m 0 min 0 min 0 W/m 0,0 km/h (0 Bft) 95,74 %
31.08.2020 23:30 14,4 C 12,8 C 12,2 C 85 % 1020,0 hPa 0,0 l/m 0 min 0 min 0 W/m 3,2 km/h (1 Bft) 93,48 %
31.08.2020 23:32 14,4 C 12,8 C 12,2 C 85 % 1020,0 hPa 0,0 l/m 0 min 0 min 0 W/m 3,2 km/h (1 Bft) 95,74 %
31.08.2020 23:34 14,4 C 12,8 C 12,2 C 85 % 1020,0 hPa 0,0 l/m 0 min 0 min 0 W/m 0,0 km/h (0 Bft) 97,92 %
31.08.2020 23:36 14,3 C 12,8 C 12,2 C 85 % 1020,0 hPa 0,0 l/m 0 min 0 min 0 W/m 0,0 km/h (0 Bft) 95,74 %
31.08.2020 23:38 14,3 C 12,8 C 12,2 C 85 % 1020,0 hPa 0,0 l/m 0 min 0 min 0 W/m 0,0 km/h (0 Bft) 97,87 %
31.08.2020 23:40 14,3 C 12,8 C 12,2 C 85 % 1020,1 hPa 0,0 l/m 0 min 0 min 0 W/m 0,0 km/h (0 Bft) 97,87 %
31.08.2020 23:42 14,3 C 12,8 C 12,2 C 85 % 1020,0 hPa 0,0 l/m 0 min 0 min 0 W/m 0,0 km/h (0 Bft) 95,65 %
31.08.2020 23:44 14,3 C 12,8 C 12,2 C 85 % 1020,0 hPa 0,0 l/m 0 min 0 min 0 W/m 0,0 km/h (0 Bft) 95,83 %
31.08.2020 23:46 14,3 C 12,8 C 12,2 C 85 % 1020,1 hPa 0,0 l/m 0 min 0 min 0 W/m 0,0 km/h (0 Bft) 93,62 %
31.08.2020 23:48 14,3 C 12,8 C 12,2 C 85 % 1020,1 hPa 0,0 l/m 0 min 0 min 0 W/m 0,0 km/h (0 Bft) 95,74 %
31.08.2020 23:50 14,3 C 12,8 C 12,2 C 85 % 1020,1 hPa 0,0 l/m 0 min 0 min 0 W/m 0,0 km/h (0 Bft) 95,74 %
31.08.2020 23:52 14,3 C 12,2 C 12,2 C 86 % 1020,0 hPa 0,0 l/m 0 min 0 min 0 W/m 0,0 km/h (0 Bft) 95,65 %
31.08.2020 23:54 14,3 C 12,2 C 12,2 C 86 % 1020,0 hPa 0,0 l/m 0 min 0 min 0 W/m 0,0 km/h (0 Bft) 95,83 %
31.08.2020 23:56 14,2 C 12,2 C 12,2 C 86 % 1020,1 hPa 0,0 l/m 0 min 0 min 0 W/m 0,0 km/h (0 Bft) 95,74 %
31.08.2020 23:58 14,2 C 12,2 C 12,2 C 86 % 1020,1 hPa 0,0 l/m 0 min 0 min 0 W/m 0,0 km/h (0 Bft) 95,83 %
_ Min-Zeit 05:32 23:52 23:26 15:56 00:00 - - - - 00:02 10:38
Minimum _ 13,7 C 12,2 C 12,2 C 65 % 1014,2 hPa - - - - 0,0 km/h (0 Bft) 54,35 %
_ Max-Zeit 15:48 15:22 17:04 07:02 23:40 00:58 13:24 00:07 14:28 13:54 00:42
Maximum _ 21,8 C 27,8 C 21,7 C 100 % 1020,1 hPa 0,6 l/m 2 min 3 min 999 W/m 22,5 km/h
W (4 Bft)
100,00 %
Durchschnitt _ 16,1 C 16,1 C 14,3 C 89 % 1018,1 hPa #3,0 l/m #4:26 h #1:38 h 264 W/m 4,8 km/h (1 Bft) 97,41 %
© 2020 W. Hausmann